Wetterdaten: Freitag, 01.07.2022
Datum Zeit Temp. Aussen Temp. o. S. Temp +5cm Feuchte Auss Luftdruck Regen Sonnenschein Regendauer Solar Windben Empfang
01.07.2022 00:00 15,1 C 14,4 C 10,6 C 95 % 1015,7 hPa 0,0 l/m 0 min 0 min 0 W/m 12,9 km/h (3 Bft) 97,87 %
01.07.2022 00:02 15,1 C 14,4 C 11,1 C 95 % 1015,6 hPa 0,0 l/m 0 min 0 min 0 W/m 9,7 km/h (2 Bft) 94,87 %
01.07.2022 00:04 15,1 C 14,4 C 10,6 C 95 % 1015,7 hPa 0,2 l/m 0 min 0 min 0 W/m 12,9 km/h (3 Bft) 97,87 %
01.07.2022 00:07 15,1 C 14,4 C 10,6 C 95 % 1015,6 hPa 0,0 l/m 0 min 0 min 0 W/m 3,2 km/h (1 Bft) 94,29 %
01.07.2022 00:08 15,1 C 14,4 C 11,1 C 95 % 1015,6 hPa 0,0 l/m 0 min 0 min 0 W/m 3,2 km/h (1 Bft) 95,83 %
01.07.2022 00:10 15,2 C 14,4 C 10,6 C 95 % 1015,6 hPa 0,0 l/m 0 min 0 min 0 W/m 6,4 km/h (2 Bft) 97,83 %
01.07.2022 00:12 15,1 C 14,4 C 10,6 C 95 % 1015,5 hPa 0,0 l/m 0 min 0 min 0 W/m 9,7 km/h (2 Bft) 97,87 %
01.07.2022 00:14 15,2 C 14,4 C 10,6 C 95 % 1015,5 hPa 0,0 l/m 0 min 0 min 0 W/m 6,4 km/h (2 Bft) 100,00 %
01.07.2022 00:16 15,1 C 14,4 C 10,6 C 95 % 1015,6 hPa 0,0 l/m 0 min 0 min 0 W/m 6,4 km/h (2 Bft) 93,62 %
01.07.2022 00:18 15,1 C 14,4 C 10,6 C 95 % 1015,5 hPa 0,0 l/m 0 min 0 min 0 W/m 6,4 km/h (2 Bft) 97,87 %
01.07.2022 00:20 15,1 C 14,4 C 10,6 C 95 % 1015,5 hPa 0,0 l/m 0 min 0 min 0 W/m 12,9 km/h (3 Bft) 95,74 %
01.07.2022 00:22 15,1 C 14,4 C 10,6 C 95 % 1015,5 hPa 0,0 l/m 0 min 0 min 0 W/m 6,4 km/h (2 Bft) 93,48 %
01.07.2022 00:24 15,1 C 13,9 C 10,6 C 95 % 1015,4 hPa 0,0 l/m 0 min 0 min 0 W/m 9,7 km/h (2 Bft) 93,62 %
01.07.2022 00:26 15,0 C 14,4 C 10,6 C 95 % 1015,4 hPa 0,0 l/m 0 min 0 min 0 W/m 6,4 km/h (2 Bft) 93,62 %
01.07.2022 00:28 15,1 C 14,4 C 10,6 C 95 % 1015,5 hPa 0,0 l/m 0 min 0 min 0 W/m 6,4 km/h (2 Bft) 95,74 %
01.07.2022 00:30 15,1 C 14,4 C 10,6 C 95 % 1015,6 hPa 0,0 l/m 0 min 0 min 0 W/m 6,4 km/h (2 Bft) 95,74 %
01.07.2022 00:32 15,0 C 14,4 C 10,6 C 95 % 1015,6 hPa 0,0 l/m 0 min 0 min 0 W/m 6,4 km/h (2 Bft) 95,74 %
01.07.2022 00:34 15,0 C 13,9 C 10,6 C 95 % 1015,6 hPa 0,0 l/m 0 min 0 min 0 W/m 6,4 km/h (2 Bft) 95,65 %
01.07.2022 00:36 15,0 C 13,9 C 10,6 C 95 % 1015,6 hPa 0,0 l/m 0 min 0 min 0 W/m 3,2 km/h (1 Bft) 95,74 %
01.07.2022 00:38 15,0 C 13,9 C 10,6 C 95 % 1015,6 hPa 0,0 l/m 0 min 0 min 0 W/m 12,9 km/h (3 Bft) 93,62 %
01.07.2022 00:40 14,9 C 14,4 C 10,6 C 95 % 1015,8 hPa 0,0 l/m 0 min 0 min 0 W/m 12,9 km/h (3 Bft) 95,74 %
01.07.2022 00:42 14,9 C 14,4 C 10,6 C 95 % 1015,8 hPa 0,0 l/m 0 min 0 min 0 W/m 6,4 km/h (2 Bft) 93,62 %
01.07.2022 00:44 14,9 C 14,4 C 10,6 C 95 % 1015,8 hPa 0,0 l/m 0 min 0 min 0 W/m 6,4 km/h (2 Bft) 95,74 %
01.07.2022 00:46 14,9 C 14,4 C 10,6 C 95 % 1015,7 hPa 0,0 l/m 0 min 0 min 0 W/m 6,4 km/h (2 Bft) 97,83 %
01.07.2022 00:48 14,9 C 14,4 C 10,6 C 95 % 1015,7 hPa 0,0 l/m 0 min 0 min 0 W/m 3,2 km/h (1 Bft) 97,87 %
01.07.2022 00:50 15,0 C 14,4 C 10,6 C 96 % 1015,8 hPa 0,0 l/m 0 min 0 min 0 W/m 6,4 km/h (2 Bft) 95,74 %
01.07.2022 00:52 14,9 C 14,4 C 10,6 C 96 % 1015,8 hPa 0,0 l/m 0 min 0 min 0 W/m 6,4 km/h (2 Bft) 97,87 %
01.07.2022 00:54 14,9 C 14,4 C 10,6 C 96 % 1015,7 hPa 0,0 l/m 0 min 0 min 0 W/m 12,9 km/h (3 Bft) 95,74 %
01.07.2022 00:56 14,9 C 14,4 C 10,6 C 96 % 1015,7 hPa 0,0 l/m 0 min 0 min 0 W/m 9,7 km/h (2 Bft) 97,87 %
01.07.2022 00:58 14,9 C 14,4 C 10,6 C 96 % 1015,7 hPa 0,0 l/m 0 min 0 min 0 W/m 6,4 km/h (2 Bft) 97,87 %
01.07.2022 01:00 14,9 C 14,4 C 10,6 C 96 % 1015,7 hPa 0,0 l/m 0 min 0 min 0 W/m 3,2 km/h (1 Bft) 97,87 %
01.07.2022 01:02 14,9 C 14,4 C 10,6 C 96 % 1015,7 hPa 0,0 l/m 0 min 0 min 0 W/m 3,2 km/h (1 Bft) 97,87 %
01.07.2022 01:04 14,9 C 13,9 C 10,6 C 96 % 1015,7 hPa 0,0 l/m 0 min 0 min 0 W/m 12,9 km/h (3 Bft) 97,87 %
01.07.2022 01:06 14,8 C 13,9 C 10,6 C 96 % 1015,5 hPa 0,0 l/m 0 min 0 min 0 W/m 6,4 km/h (2 Bft) 100,00 %
01.07.2022 01:08 14,8 C 13,9 C 10,6 C 96 % 1015,5 hPa 0,0 l/m 0 min 0 min 0 W/m 6,4 km/h (2 Bft) 100,00 %
01.07.2022 01:10 14,7 C 13,9 C 10,6 C 96 % 1015,5 hPa 0,0 l/m 0 min 0 min 0 W/m 6,4 km/h (2 Bft) 100,00 %
01.07.2022 01:12 14,7 C 13,9 C 10,6 C 96 % 1015,6 hPa 0,0 l/m 0 min 0 min 0 W/m 3,2 km/h (1 Bft) 100,00 %
01.07.2022 01:14 14,7 C 13,9 C 10,6 C 96 % 1015,6 hPa 0,0 l/m 0 min 0 min 0 W/m 12,9 km/h (3 Bft) 100,00 %
01.07.2022 01:16 14,7 C 13,9 C 10,6 C 96 % 1015,6 hPa 0,0 l/m 0 min 0 min 0 W/m 6,4 km/h (2 Bft) 100,00 %
01.07.2022 01:18 14,6 C 13,9 C 10,6 C 96 % 1015,6 hPa 0,0 l/m 0 min 0 min 0 W/m 3,2 km/h (1 Bft) 100,00 %
01.07.2022 01:20 14,6 C 13,9 C 10,6 C 96 % 1015,7 hPa 0,0 l/m 0 min 0 min 0 W/m 6,4 km/h (2 Bft) 100,00 %
01.07.2022 01:22 14,6 C 13,9 C 10,6 C 96 % 1015,8 hPa 0,0 l/m 0 min 0 min 0 W/m 6,4 km/h (2 Bft) 95,74 %
01.07.2022 01:24 14,6 C 13,9 C 10,6 C 96 % 1015,7 hPa 0,0 l/m 0 min 0 min 0 W/m 6,4 km/h (2 Bft) 100,00 %
01.07.2022 01:26 14,6 C 13,9 C 10,6 C 96 % 1015,8 hPa 0,0 l/m 0 min 0 min 0 W/m 6,4 km/h (2 Bft) 97,87 %
01.07.2022 01:28 14,5 C 13,9 C 10,6 C 96 % 1015,8 hPa 0,0 l/m 0 min 0 min 0 W/m 16,1 km/h (3 Bft) 100,00 %
01.07.2022 01:30 14,4 C 13,9 C 10,6 C 96 % 1015,8 hPa 0,0 l/m 0 min 0 min 0 W/m 6,4 km/h (2 Bft) 100,00 %
01.07.2022 01:32 14,4 C 13,9 C 10,6 C 96 % 1015,8 hPa 0,0 l/m 0 min 0 min 0 W/m 12,9 km/h (3 Bft) 97,87 %
01.07.2022 01:34 14,4 C 13,9 C 10,6 C 96 % 1015,8 hPa 0,0 l/m 0 min 0 min 0 W/m 3,2 km/h (1 Bft) 100,00 %
01.07.2022 01:36 14,4 C 13,9 C 10,6 C 96 % 1015,8 hPa 0,0 l/m 0 min 0 min 0 W/m 3,2 km/h (1 Bft) 100,00 %
01.07.2022 01:38 14,4 C 13,9 C 10,6 C 96 % 1015,8 hPa 0,0 l/m 0 min 0 min 0 W/m 3,2 km/h (1 Bft) 97,87 %
01.07.2022 01:40 14,4 C 13,9 C 10,6 C 96 % 1015,8 hPa 0,0 l/m 0 min 0 min 0 W/m 16,1 km/h (3 Bft) 100,00 %
01.07.2022 01:42 14,3 C 13,9 C 10,6 C 96 % 1015,6 hPa 0,0 l/m 0 min 0 min 0 W/m 3,2 km/h (1 Bft) 100,00 %
01.07.2022 01:44 14,3 C 13,9 C 10,6 C 96 % 1015,5 hPa 0,0 l/m 0 min 0 min 0 W/m 12,9 km/h (3 Bft) 100,00 %
01.07.2022 01:46 14,3 C 13,9 C 10,6 C 96 % 1015,5 hPa 0,0 l/m 0 min 0 min 0 W/m 6,4 km/h (2 Bft) 97,87 %
01.07.2022 01:48 14,3 C 13,9 C 10,6 C 96 % 1015,5 hPa 0,0 l/m 0 min 0 min 0 W/m 6,4 km/h (2 Bft) 100,00 %
01.07.2022 01:50 14,3 C 13,9 C 10,6 C 96 % 1015,4 hPa 0,0 l/m 0 min 0 min 0 W/m 6,4 km/h (2 Bft) 100,00 %
01.07.2022 01:52 14,3 C 13,9 C 10,6 C 96 % 1015,4 hPa 0,0 l/m 0 min 0 min 0 W/m 3,2 km/h (1 Bft) 97,87 %
01.07.2022 01:54 14,3 C 13,9 C 10,6 C 96 % 1015,3 hPa 0,0 l/m 0 min 0 min 0 W/m 3,2 km/h (1 Bft) 100,00 %
01.07.2022 01:56 14,3 C 13,9 C 10,6 C 96 % 1015,4 hPa 0,0 l/m 0 min 0 min 0 W/m 12,9 km/h (3 Bft) 97,87 %
01.07.2022 01:58 14,3 C 13,9 C 10,6 C 96 % 1015,4 hPa 0,0 l/m 0 min 0 min 0 W/m 6,4 km/h (2 Bft) 97,87 %
01.07.2022 02:00 14,3 C 13,9 C 10,6 C 96 % 1015,4 hPa 0,0 l/m 0 min 0 min 0 W/m 6,4 km/h (2 Bft) 100,00 %
01.07.2022 02:02 14,3 C 13,9 C 10,6 C 96 % 1015,4 hPa 0,0 l/m 0 min 0 min 0 W/m 3,2 km/h (1 Bft) 97,87 %
01.07.2022 02:04 14,3 C 13,9 C 10,6 C 96 % 1015,4 hPa 0,0 l/m 0 min 0 min 0 W/m 3,2 km/h (1 Bft) 97,87 %
01.07.2022 02:06 14,3 C 13,9 C 10,6 C 96 % 1015,3 hPa 0,0 l/m 0 min 0 min 0 W/m 3,2 km/h (1 Bft) 97,83 %
01.07.2022 02:08 14,3 C 13,9 C 10,6 C 96 % 1015,3 hPa 0,0 l/m 0 min 0 min 0 W/m 3,2 km/h (1 Bft) 97,87 %
01.07.2022 02:10 14,3 C 13,9 C 10,6 C 96 % 1015,3 hPa 0,0 l/m 0 min 0 min 0 W/m 6,4 km/h (2 Bft) 97,87 %
01.07.2022 02:12 14,3 C 13,9 C 10,6 C 96 % 1015,4 hPa 0,0 l/m 0 min 0 min 0 W/m 3,2 km/h (1 Bft) 95,74 %
01.07.2022 02:14 14,3 C 13,9 C 10,6 C 96 % 1015,4 hPa 0,0 l/m 0 min 0 min 0 W/m 6,4 km/h (2 Bft) 97,87 %
01.07.2022 02:16 14,3 C 13,9 C 10,6 C 95 % 1015,3 hPa 0,0 l/m 0 min 0 min 0 W/m 6,4 km/h (2 Bft) 97,83 %
01.07.2022 02:18 14,3 C 13,9 C 10,6 C 96 % 1015,3 hPa 0,0 l/m 0 min 0 min 0 W/m 6,4 km/h (2 Bft) 95,74 %
01.07.2022 02:20 14,3 C 13,9 C 10,6 C 96 % 1015,3 hPa 0,0 l/m 0 min 0 min 0 W/m 3,2 km/h (1 Bft) 97,87 %
01.07.2022 02:22 14,3 C 13,9 C 10,6 C 96 % 1015,3 hPa 0,0 l/m 0 min 0 min 0 W/m 6,4 km/h (2 Bft) 93,62 %
01.07.2022 02:24 14,3 C 13,9 C 10,6 C 96 % 1015,3 hPa 0,0 l/m 0 min 0 min 0 W/m 3,2 km/h (1 Bft) 93,62 %
01.07.2022 02:26 14,3 C 13,9 C 10,6 C 96 % 1015,3 hPa 0,0 l/m 0 min 0 min 0 W/m 6,4 km/h (2 Bft) 95,74 %
01.07.2022 02:28 14,3 C 13,9 C 10,6 C 95 % 1015,3 hPa 0,0 l/m 0 min 0 min 0 W/m 9,7 km/h (2 Bft) 93,48 %
01.07.2022 02:30 14,3 C 13,9 C 10,6 C 95 % 1015,3 hPa 0,0 l/m 0 min 0 min 0 W/m 3,2 km/h (1 Bft) 95,74 %
01.07.2022 02:32 14,3 C 13,9 C 10,6 C 95 % 1015,4 hPa 0,0 l/m 0 min 0 min 0 W/m 6,4 km/h (2 Bft) 97,87 %
01.07.2022 02:34 14,3 C 13,9 C 10,6 C 95 % 1015,4 hPa 0,0 l/m 0 min 0 min 0 W/m 6,4 km/h (2 Bft) 95,74 %
01.07.2022 02:36 14,3 C 13,9 C 10,6 C 95 % 1015,4 hPa 0,0 l/m 0 min 0 min 0 W/m 3,2 km/h (1 Bft) 95,74 %
01.07.2022 02:38 14,3 C 13,9 C 10,6 C 95 % 1015,3 hPa 0,0 l/m 0 min 0 min 0 W/m 12,9 km/h (3 Bft) 97,87 %
01.07.2022 02:40 14,3 C 13,9 C 10,6 C 95 % 1015,4 hPa 0,0 l/m 0 min 0 min 0 W/m 6,4 km/h (2 Bft) 97,83 %
01.07.2022 02:42 14,3 C 13,3 C 10,6 C 95 % 1015,4 hPa 0,0 l/m 0 min 0 min 0 W/m 6,4 km/h (2 Bft) 95,74 %
01.07.2022 02:44 14,3 C 13,9 C 10,6 C 95 % 1015,4 hPa 0,0 l/m 0 min 0 min 0 W/m 6,4 km/h (2 Bft) 97,87 %
01.07.2022 02:46 14,3 C 13,9 C 10,6 C 95 % 1015,4 hPa 0,0 l/m 0 min 0 min 0 W/m 12,9 km/h (3 Bft) 95,74 %
01.07.2022 02:48 14,2 C 13,9 C 10,6 C 95 % 1015,4 hPa 0,0 l/m 0 min 0 min 0 W/m 3,2 km/h (1 Bft) 97,87 %
01.07.2022 02:50 14,2 C 13,9 C 10,6 C 95 % 1015,5 hPa 0,0 l/m 0 min 0 min 0 W/m 3,2 km/h (1 Bft) 97,87 %
01.07.2022 02:52 14,2 C 13,9 C 10,6 C 95 % 1015,5 hPa 0,0 l/m 0 min 0 min 0 W/m 3,2 km/h (1 Bft) 93,48 %
01.07.2022 02:54 14,2 C 13,3 C 10,6 C 95 % 1015,5 hPa 0,0 l/m 0 min 0 min 0 W/m 6,4 km/h (2 Bft) 97,87 %
01.07.2022 02:56 14,2 C 13,3 C 10,6 C 95 % 1015,6 hPa 0,0 l/m 0 min 0 min 0 W/m 6,4 km/h (2 Bft) 97,87 %
01.07.2022 02:58 14,2 C 13,3 C 10,6 C 95 % 1015,6 hPa 0,0 l/m 0 min 0 min 0 W/m 6,4 km/h (2 Bft) 97,87 %
01.07.2022 03:00 14,1 C 13,3 C 10,6 C 95 % 1015,7 hPa 0,0 l/m 0 min 0 min 0 W/m 3,2 km/h (1 Bft) 97,87 %
01.07.2022 03:02 14,1 C 13,3 C 10,6 C 95 % 1015,7 hPa 0,0 l/m 0 min 0 min 0 W/m 6,4 km/h (2 Bft) 93,62 %
01.07.2022 03:04 14,1 C 13,3 C 10,6 C 95 % 1015,7 hPa 0,0 l/m 0 min 0 min 0 W/m 6,4 km/h (2 Bft) 93,48 %
01.07.2022 03:06 14,1 C 13,3 C 10,6 C 95 % 1015,6 hPa 0,0 l/m 0 min 0 min 0 W/m 6,4 km/h (2 Bft) 95,74 %
01.07.2022 03:08 14,1 C 13,3 C 10,6 C 95 % 1015,6 hPa 0,0 l/m 0 min 0 min 0 W/m 6,4 km/h (2 Bft) 91,49 %
01.07.2022 03:10 14,1 C 13,3 C 10,6 C 95 % 1015,7 hPa 0,0 l/m 0 min 0 min 0 W/m 6,4 km/h (2 Bft) 95,74 %
01.07.2022 03:12 14,1 C 13,3 C 10,6 C 95 % 1015,7 hPa 0,0 l/m 0 min 0 min 0 W/m 9,7 km/h (2 Bft) 95,74 %
01.07.2022 03:14 14,1 C 13,3 C 10,6 C 95 % 1015,8 hPa 0,0 l/m 0 min 0 min 0 W/m 6,4 km/h (2 Bft) 95,74 %
01.07.2022 03:16 14,1 C 13,3 C 10,6 C 95 % 1015,7 hPa 0,0 l/m 0 min 0 min 0 W/m 6,4 km/h (2 Bft) 95,65 %
01.07.2022 03:18 14,1 C 13,3 C 10,6 C 95 % 1015,8 hPa 0,0 l/m 0 min 0 min 0 W/m 9,7 km/h (2 Bft) 93,62 %
01.07.2022 03:20 14,1 C 13,3 C 10,6 C 95 % 1015,7 hPa 0,0 l/m 0 min 0 min 0 W/m 12,9 km/h (3 Bft) 97,87 %
01.07.2022 03:22 14,1 C 13,3 C 10,6 C 95 % 1015,8 hPa 0,0 l/m 0 min 0 min 0 W/m 6,4 km/h (2 Bft) 95,74 %
01.07.2022 03:24 14,1 C 13,3 C 10,6 C 95 % 1015,9 hPa 0,0 l/m 0 min 0 min 0 W/m 3,2 km/h (1 Bft) 93,62 %
01.07.2022 03:26 14,1 C 13,3 C 10,6 C 95 % 1016,0 hPa 0,0 l/m 0 min 0 min 0 W/m 3,2 km/h (1 Bft) 97,87 %
01.07.2022 03:28 14,1 C 13,3 C 10,6 C 95 % 1015,9 hPa 0,0 l/m 0 min 0 min 0 W/m 16,1 km/h (3 Bft) 97,83 %
01.07.2022 03:30 14,1 C 13,3 C 10,6 C 95 % 1015,9 hPa 0,0 l/m 0 min 0 min 0 W/m 6,4 km/h (2 Bft) 95,74 %
01.07.2022 03:32 14,1 C 13,3 C 10,6 C 95 % 1015,9 hPa 0,0 l/m 0 min 0 min 0 W/m 6,4 km/h (2 Bft) 97,87 %
01.07.2022 03:34 14,1 C 13,3 C 10,6 C 95 % 1016,0 hPa 0,0 l/m 0 min 0 min 0 W/m 6,4 km/h (2 Bft) 95,74 %
01.07.2022 03:36 14,0 C 13,3 C 10,6 C 95 % 1015,9 hPa 0,0 l/m 0 min 0 min 0 W/m 6,4 km/h (2 Bft) 95,74 %
01.07.2022 03:38 14,0 C 13,3 C 10,6 C 95 % 1016,0 hPa 0,0 l/m 0 min 0 min 0 W/m 3,2 km/h (1 Bft) 95,74 %
01.07.2022 03:40 14,1 C 13,3 C 10,6 C 95 % 1016,0 hPa 0,0 l/m 0 min 0 min 0 W/m 6,4 km/h (2 Bft) 93,48 %
01.07.2022 03:42 14,1 C 13,3 C 10,6 C 95 % 1016,1 hPa 0,0 l/m 0 min 0 min 0 W/m 3,2 km/h (1 Bft) 97,87 %
01.07.2022 03:44 14,1 C 13,3 C 10,6 C 95 % 1016,1 hPa 0,0 l/m 0 min 0 min 0 W/m 6,4 km/h (2 Bft) 95,74 %
01.07.2022 03:46 14,1 C 13,3 C 10,6 C 95 % 1016,1 hPa 0,0 l/m 0 min 0 min 0 W/m 6,4 km/h (2 Bft) 95,74 %
01.07.2022 03:48 14,1 C 13,3 C 10,6 C 95 % 1016,1 hPa 0,0 l/m 0 min 0 min 0 W/m 3,2 km/h (1 Bft) 97,87 %
01.07.2022 03:50 14,1 C 13,3 C 10,6 C 95 % 1016,1 hPa 0,0 l/m 0 min 0 min 0 W/m 6,4 km/h (2 Bft) 95,92 %
01.07.2022 03:52 14,1 C 13,3 C 10,6 C 95 % 1016,1 hPa 0,0 l/m 0 min 0 min 0 W/m 3,2 km/h (1 Bft) 93,62 %
01.07.2022 03:54 14,1 C 13,3 C 10,6 C 95 % 1016,0 hPa 0,0 l/m 0 min 0 min 0 W/m 6,4 km/h (2 Bft) 97,83 %
01.07.2022 03:56 14,0 C 13,3 C 10,6 C 95 % 1015,9 hPa 0,0 l/m 0 min 0 min 0 W/m 6,4 km/h (2 Bft) 97,87 %
01.07.2022 03:58 14,0 C 13,3 C 10,6 C 95 % 1015,8 hPa 0,0 l/m 0 min 0 min 0 W/m 6,4 km/h (2 Bft) 97,87 %
01.07.2022 04:00 14,0 C 13,3 C 10,6 C 95 % 1015,8 hPa 0,0 l/m 0 min 0 min 0 W/m 3,2 km/h (1 Bft) 97,87 %
01.07.2022 04:02 14,0 C 13,3 C 10,6 C 95 % 1015,9 hPa 0,0 l/m 0 min 0 min 0 W/m 3,2 km/h (1 Bft) 97,14 %
01.07.2022 04:04 14,0 C 13,3 C 10,6 C 95 % 1016,0 hPa 0,0 l/m 0 min 0 min 0 W/m 6,4 km/h (2 Bft) 97,87 %
01.07.2022 04:06 14,0 C 13,3 C 10,6 C 95 % 1016,0 hPa 0,0 l/m 0 min 0 min 0 W/m 6,4 km/h (2 Bft) 97,87 %
01.07.2022 04:11 13,9 C 13,3 C 10,6 C 95 % 1016,2 hPa 0,0 l/m 0 min 0 min 0 W/m 6,4 km/h (2 Bft) 100,00 %
01.07.2022 04:12 13,9 C 13,3 C 10,6 C 95 % 1016,2 hPa 0,0 l/m 0 min 0 min 0 W/m 3,2 km/h (1 Bft) 100,00 %
01.07.2022 04:14 13,9 C 13,3 C 10,6 C 95 % 1016,2 hPa 0,0 l/m 0 min 0 min 0 W/m 3,2 km/h (1 Bft) 97,62 %
01.07.2022 04:16 13,9 C 13,3 C 10,6 C 95 % 1016,2 hPa 0,0 l/m 0 min 0 min 0 W/m 6,4 km/h (2 Bft) 100,00 %
01.07.2022 04:18 13,9 C 13,3 C 10,6 C 95 % 1016,2 hPa 0,0 l/m 0 min 0 min 0 W/m 3,2 km/h (1 Bft) 100,00 %
01.07.2022 04:20 13,9 C 13,3 C 10,6 C 95 % 1016,1 hPa 0,0 l/m 0 min 0 min 0 W/m 12,9 km/h (3 Bft) 97,83 %
01.07.2022 04:22 13,9 C 13,3 C 10,6 C 95 % 1016,1 hPa 0,0 l/m 0 min 0 min 0 W/m 9,7 km/h (2 Bft) 100,00 %
01.07.2022 04:24 13,9 C 13,3 C 10,6 C 95 % 1016,1 hPa 0,0 l/m 0 min 0 min 0 W/m 3,2 km/h (1 Bft) 100,00 %
01.07.2022 04:26 13,9 C 13,3 C 10,6 C 95 % 1016,1 hPa 0,0 l/m 0 min 0 min 0 W/m 6,4 km/h (2 Bft) 100,00 %
01.07.2022 04:28 13,9 C 13,3 C 10,6 C 95 % 1016,1 hPa 0,0 l/m 0 min 0 min 0 W/m 3,2 km/h (1 Bft) 100,00 %
01.07.2022 04:30 13,9 C 13,3 C 10,6 C 95 % 1016,2 hPa 0,0 l/m 0 min 0 min 0 W/m 6,4 km/h (2 Bft) 100,00 %
01.07.2022 04:32 13,9 C 13,3 C 10,6 C 95 % 1016,2 hPa 0,0 l/m 0 min 0 min 0 W/m 6,4 km/h (2 Bft) 97,83 %
01.07.2022 04:34 13,9 C 13,3 C 10,6 C 95 % 1016,3 hPa 0,0 l/m 0 min 0 min 0 W/m 9,7 km/h (2 Bft) 100,00 %
01.07.2022 04:36 14,0 C 13,3 C 10,6 C 95 % 1016,4 hPa 0,0 l/m 0 min 0 min 0 W/m 6,4 km/h (2 Bft) 97,87 %
01.07.2022 04:38 13,9 C 13,3 C 10,6 C 95 % 1016,4 hPa 0,0 l/m 0 min 0 min 0 W/m 3,2 km/h (1 Bft) 100,00 %
01.07.2022 04:40 13,9 C 13,3 C 10,6 C 95 % 1016,3 hPa 0,0 l/m 0 min 0 min 0 W/m 6,4 km/h (2 Bft) 100,00 %
01.07.2022 04:42 13,9 C 13,3 C 10,6 C 95 % 1016,3 hPa 0,0 l/m 0 min 0 min 0 W/m 6,4 km/h (2 Bft) 100,00 %
01.07.2022 04:44 13,9 C 13,3 C 10,6 C 95 % 1016,3 hPa 0,0 l/m 0 min 0 min 0 W/m 12,9 km/h (3 Bft) 100,00 %
01.07.2022 04:46 13,9 C 13,3 C 10,6 C 95 % 1016,3 hPa 0,0 l/m 0 min 0 min 0 W/m 9,7 km/h (2 Bft) 100,00 %
01.07.2022 04:48 13,9 C 13,3 C 10,6 C 95 % 1016,2 hPa 0,0 l/m 0 min 0 min 0 W/m 6,4 km/h (2 Bft) 100,00 %
01.07.2022 04:50 13,9 C 13,3 C 10,6 C 95 % 1016,2 hPa 0,0 l/m 0 min 0 min 0 W/m 6,4 km/h (2 Bft) 97,87 %
01.07.2022 04:52 13,9 C 13,3 C 10,6 C 95 % 1016,3 hPa 0,0 l/m 0 min 0 min 0 W/m 3,2 km/h (1 Bft) 97,87 %
01.07.2022 04:54 13,9 C 13,3 C 10,6 C 95 % 1016,5 hPa 0,0 l/m 0 min 0 min 0 W/m 9,7 km/h (2 Bft) 100,00 %
01.07.2022 04:56 13,9 C 13,3 C 10,6 C 95 % 1016,6 hPa 0,0 l/m 0 min 0 min 0 W/m 9,7 km/h (2 Bft) 100,00 %
01.07.2022 04:58 13,9 C 13,3 C 10,6 C 95 % 1016,6 hPa 0,0 l/m 0 min 0 min 0 W/m 9,7 km/h (2 Bft) 56,52 %
01.07.2022 05:00 13,9 C 13,3 C 10,6 C 95 % 1016,6 hPa 0,0 l/m 0 min 0 min 0 W/m 3,2 km/h (1 Bft) 100,00 %
01.07.2022 05:02 13,9 C 13,3 C 10,6 C 95 % 1016,7 hPa 0,0 l/m 0 min 0 min 0 W/m 6,4 km/h (2 Bft) 95,74 %
01.07.2022 05:04 13,9 C 13,3 C 10,6 C 95 % 1016,7 hPa 0,0 l/m 0 min 0 min 0 W/m 6,4 km/h (2 Bft) 100,00 %
01.07.2022 05:06 13,8 C 13,3 C 10,6 C 95 % 1016,7 hPa 0,0 l/m 0 min 0 min 0 W/m 9,7 km/h (2 Bft) 95,65 %
01.07.2022 05:08 13,8 C 13,3 C 10,6 C 95 % 1016,7 hPa 0,0 l/m 0 min 0 min 0 W/m 6,4 km/h (2 Bft) 100,00 %
01.07.2022 05:10 13,9 C 13,3 C 10,6 C 95 % 1016,7 hPa 0,0 l/m 0 min 0 min 0 W/m 9,7 km/h (2 Bft) 100,00 %
01.07.2022 05:12 13,9 C 13,3 C 10,6 C 95 % 1016,7 hPa 0,0 l/m 0 min 0 min 0 W/m 6,4 km/h (2 Bft) 100,00 %
01.07.2022 05:14 13,9 C 13,3 C 10,6 C 95 % 1016,7 hPa 0,0 l/m 0 min 0 min 0 W/m 9,7 km/h (2 Bft) 100,00 %
01.07.2022 05:16 13,9 C 13,3 C 10,6 C 95 % 1016,7 hPa 0,0 l/m 0 min 0 min 0 W/m 3,2 km/h (1 Bft) 100,00 %
01.07.2022 05:18 13,9 C 13,3 C 10,6 C 95 % 1016,8 hPa 0,0 l/m 0 min 0 min 0 W/m 6,4 km/h (2 Bft) 97,83 %
01.07.2022 05:20 13,9 C 13,3 C 10,6 C 95 % 1016,7 hPa 0,0 l/m 0 min 0 min 0 W/m 6,4 km/h (2 Bft) 97,87 %
01.07.2022 05:22 13,9 C 13,3 C 10,6 C 95 % 1016,8 hPa 0,0 l/m 0 min 0 min 0 W/m 3,2 km/h (1 Bft) 100,00 %
01.07.2022 05:24 13,9 C 13,3 C 10,6 C 95 % 1016,9 hPa 0,0 l/m 0 min 0 min 0 W/m 12,9 km/h (3 Bft) 100,00 %
01.07.2022 05:26 13,9 C 13,3 C 10,6 C 95 % 1016,9 hPa 0,0 l/m 0 min 0 min 0 W/m 12,9 km/h (3 Bft) 100,00 %
01.07.2022 05:28 13,9 C 13,3 C 10,6 C 95 % 1017,0 hPa 0,0 l/m 0 min 0 min 0 W/m 12,9 km/h (3 Bft) 95,74 %
01.07.2022 05:30 13,9 C 13,3 C 10,6 C 95 % 1017,0 hPa 0,0 l/m 0 min 0 min 0 W/m 12,9 km/h (3 Bft) 100,00 %
01.07.2022 05:32 13,9 C 13,3 C 10,6 C 95 % 1017,0 hPa 0,0 l/m 0 min 0 min 0 W/m 16,1 km/h (3 Bft) 97,83 %
01.07.2022 05:34 13,9 C 13,3 C 10,6 C 95 % 1017,0 hPa 0,0 l/m 0 min 0 min 0 W/m 9,7 km/h (2 Bft) 97,87 %
01.07.2022 05:36 13,9 C 13,3 C 10,6 C 95 % 1017,0 hPa 0,0 l/m 0 min 0 min 0 W/m 3,2 km/h (1 Bft) 97,87 %
01.07.2022 05:38 13,9 C 13,3 C 10,6 C 95 % 1017,0 hPa 0,0 l/m 0 min 0 min 1 W/m 3,2 km/h (1 Bft) 95,74 %
01.07.2022 05:40 13,9 C 13,3 C 10,6 C 95 % 1016,9 hPa 0,0 l/m 0 min 0 min 5 W/m 3,2 km/h (1 Bft) 97,87 %
01.07.2022 05:42 13,9 C 13,3 C 10,6 C 95 % 1016,9 hPa 0,0 l/m 0 min 0 min 5 W/m 3,2 km/h (1 Bft) 93,48 %
01.07.2022 05:44 13,9 C 13,3 C 10,6 C 95 % 1016,7 hPa 0,0 l/m 0 min 0 min 5 W/m 9,7 km/h (2 Bft) 93,62 %
01.07.2022 05:46 13,9 C 13,3 C 10,6 C 95 % 1016,7 hPa 0,0 l/m 0 min 0 min 5 W/m 3,2 km/h (1 Bft) 93,62 %
01.07.2022 05:48 13,9 C 13,3 C 10,6 C 95 % 1016,8 hPa 0,0 l/m 0 min 0 min 7 W/m 6,4 km/h (2 Bft) 93,62 %
01.07.2022 05:50 13,8 C 13,3 C 10,6 C 95 % 1016,9 hPa 0,0 l/m 0 min 0 min 7 W/m 3,2 km/h (1 Bft) 93,62 %
01.07.2022 05:52 13,8 C 13,3 C 10,6 C 95 % 1016,9 hPa 0,0 l/m 0 min 0 min 7 W/m 6,4 km/h (2 Bft) 91,49 %
01.07.2022 05:54 13,8 C 13,3 C 10,6 C 95 % 1016,9 hPa 0,0 l/m 0 min 0 min 8 W/m 9,7 km/h (2 Bft) 93,48 %
01.07.2022 05:56 13,8 C 13,3 C 10,6 C 95 % 1016,9 hPa 0,0 l/m 0 min 0 min 10 W/m 9,7 km/h (2 Bft) 91,49 %
01.07.2022 05:58 13,8 C 13,3 C 10,6 C 95 % 1016,9 hPa 0,0 l/m 0 min 0 min 11 W/m 9,7 km/h (2 Bft) 91,49 %
01.07.2022 06:00 13,8 C 13,3 C 10,6 C 95 % 1016,9 hPa 0,0 l/m 0 min 0 min 13 W/m 9,7 km/h (2 Bft) 93,62 %
01.07.2022 06:02 13,8 C 13,3 C 10,6 C 95 % 1017,0 hPa 0,0 l/m 0 min 0 min 15 W/m 9,7 km/h (2 Bft) 93,62 %
01.07.2022 06:04 13,8 C 13,3 C 10,6 C 95 % 1016,9 hPa 0,0 l/m 0 min 0 min 18 W/m 9,7 km/h (2 Bft) 95,74 %
01.07.2022 06:07 13,8 C 13,3 C 10,6 C 95 % 1017,1 hPa 0,0 l/m 0 min 0 min 18 W/m 9,7 km/h (2 Bft) 95,77 %
01.07.2022 06:10 13,8 C 13,3 C 10,6 C 95 % 1017,1 hPa 0,0 l/m 0 min 0 min 18 W/m 6,4 km/h (2 Bft) 95,71 %
01.07.2022 06:12 13,8 C 13,3 C 10,6 C 95 % 1017,2 hPa 0,0 l/m 0 min 0 min 19 W/m 9,7 km/h (2 Bft) 95,74 %
01.07.2022 06:14 13,8 C 13,3 C 10,6 C 95 % 1017,1 hPa 0,0 l/m 0 min 0 min 19 W/m 12,9 km/h (3 Bft) 89,36 %
01.07.2022 06:16 13,8 C 13,3 C 10,6 C 95 % 1017,1 hPa 0,0 l/m 0 min 0 min 19 W/m 12,9 km/h (3 Bft) 95,74 %
01.07.2022 06:18 13,7 C 13,3 C 10,6 C 95 % 1017,1 hPa 0,0 l/m 0 min 0 min 19 W/m 12,9 km/h (3 Bft) 95,65 %
01.07.2022 06:20 13,7 C 13,3 C 10,6 C 95 % 1017,1 hPa 0,0 l/m 0 min 0 min 18 W/m 12,9 km/h (3 Bft) 95,74 %
01.07.2022 06:22 13,7 C 13,3 C 10,6 C 95 % 1017,1 hPa 0,0 l/m 0 min 0 min 18 W/m 6,4 km/h (2 Bft) 95,74 %
01.07.2022 06:24 13,7 C 13,3 C 10,6 C 95 % 1017,0 hPa 0,0 l/m 0 min 0 min 18 W/m 3,2 km/h (1 Bft) 95,74 %
01.07.2022 06:26 13,7 C 13,3 C 10,6 C 95 % 1017,0 hPa 0,0 l/m 0 min 0 min 17 W/m 6,4 km/h (2 Bft) 93,62 %
01.07.2022 06:28 13,7 C 13,3 C 10,6 C 95 % 1017,0 hPa 0,0 l/m 0 min 0 min 18 W/m 6,4 km/h (2 Bft) 95,74 %
01.07.2022 06:30 13,8 C 13,3 C 10,6 C 95 % 1017,0 hPa 0,0 l/m 0 min 0 min 18 W/m 6,4 km/h (2 Bft) 97,83 %
01.07.2022 06:32 13,8 C 13,3 C 10,6 C 95 % 1017,0 hPa 0,0 l/m 0 min 0 min 19 W/m 6,4 km/h (2 Bft) 95,74 %
01.07.2022 06:34 13,8 C 13,3 C 10,6 C 95 % 1017,0 hPa 0,0 l/m 0 min 0 min 20 W/m 6,4 km/h (2 Bft) 97,87 %
01.07.2022 06:36 13,8 C 13,3 C 10,6 C 95 % 1017,0 hPa 0,0 l/m 0 min 0 min 23 W/m 3,2 km/h (1 Bft) 95,74 %
01.07.2022 06:38 13,8 C 13,3 C 10,6 C 95 % 1017,0 hPa 0,0 l/m 0 min 0 min 26 W/m 6,4 km/h (2 Bft) 97,87 %
01.07.2022 06:40 13,8 C 13,3 C 10,6 C 95 % 1017,0 hPa 0,0 l/m 0 min 0 min 28 W/m 3,2 km/h (1 Bft) 100,00 %
01.07.2022 06:42 13,9 C 13,9 C 10,6 C 95 % 1017,0 hPa 0,0 l/m 0 min 0 min 30 W/m 12,9 km/h (3 Bft) 95,65 %
01.07.2022 06:44 13,9 C 13,3 C 10,6 C 95 % 1016,9 hPa 0,0 l/m 0 min 0 min 30 W/m 6,4 km/h (2 Bft) 100,00 %
01.07.2022 06:46 13,9 C 13,3 C 10,6 C 95 % 1016,9 hPa 0,0 l/m 0 min 0 min 28 W/m 9,7 km/h (2 Bft) 100,00 %
01.07.2022 06:48 13,9 C 13,3 C 10,6 C 95 % 1016,9 hPa 0,0 l/m 0 min 0 min 28 W/m 6,4 km/h (2 Bft) 97,87 %
01.07.2022 06:50 13,9 C 13,3 C 10,6 C 95 % 1016,9 hPa 0,0 l/m 0 min 0 min 27 W/m 6,4 km/h (2 Bft) 97,87 %
01.07.2022 06:52 13,9 C 13,3 C 10,6 C 95 % 1016,9 hPa 0,0 l/m 0 min 0 min 26 W/m 6,4 km/h (2 Bft) 100,00 %
01.07.2022 06:54 13,9 C 13,3 C 10,6 C 95 % 1016,9 hPa 0,0 l/m 0 min 0 min 28 W/m 6,4 km/h (2 Bft) 100,00 %
01.07.2022 06:56 13,9 C 13,9 C 10,6 C 95 % 1016,9 hPa 0,0 l/m 0 min 0 min 28 W/m 6,4 km/h (2 Bft) 97,87 %
01.07.2022 06:58 13,9 C 13,9 C 10,6 C 95 % 1017,0 hPa 0,0 l/m 0 min 0 min 30 W/m 12,9 km/h (3 Bft) 100,00 %
01.07.2022 07:00 13,9 C 13,3 C 10,6 C 95 % 1017,0 hPa 0,0 l/m 0 min 0 min 30 W/m 12,9 km/h (3 Bft) 100,00 %
01.07.2022 07:02 14,0 C 13,3 C 10,6 C 95 % 1016,9 hPa 0,0 l/m 0 min 0 min 31 W/m 3,2 km/h (1 Bft) 97,87 %
01.07.2022 07:04 13,9 C 13,3 C 10,6 C 95 % 1017,0 hPa 0,0 l/m 0 min 0 min 33 W/m 12,9 km/h (3 Bft) 100,00 %
01.07.2022 07:06 14,0 C 13,3 C 10,6 C 95 % 1017,0 hPa 0,0 l/m 0 min 0 min 34 W/m 3,2 km/h (1 Bft) 100,00 %
01.07.2022 07:08 14,0 C 13,3 C 10,6 C 95 % 1017,0 hPa 0,0 l/m 0 min 0 min 35 W/m 3,2 km/h (1 Bft) 100,00 %
01.07.2022 07:10 14,0 C 13,9 C 10,6 C 95 % 1016,9 hPa 0,0 l/m 0 min 0 min 35 W/m 6,4 km/h (2 Bft) 100,00 %
01.07.2022 07:12 14,0 C 13,3 C 10,6 C 95 % 1016,9 hPa 0,0 l/m 0 min 0 min 35 W/m 9,7 km/h (2 Bft) 97,87 %
01.07.2022 07:14 14,1 C 13,9 C 10,6 C 95 % 1016,9 hPa 0,0 l/m 0 min 0 min 34 W/m 9,7 km/h (2 Bft) 100,00 %
01.07.2022 07:16 14,1 C 13,9 C 10,6 C 94 % 1016,9 hPa 0,0 l/m 0 min 0 min 33 W/m 6,4 km/h (2 Bft) 100,00 %
01.07.2022 07:18 14,1 C 13,9 C 10,6 C 94 % 1016,8 hPa 0,0 l/m 0 min 0 min 34 W/m 9,7 km/h (2 Bft) 97,83 %
01.07.2022 07:20 14,1 C 13,9 C 10,6 C 94 % 1016,8 hPa 0,0 l/m 0 min 0 min 37 W/m 3,2 km/h (1 Bft) 97,87 %
01.07.2022 07:22 14,1 C 13,9 C 10,6 C 94 % 1016,8 hPa 0,0 l/m 0 min 0 min 42 W/m 6,4 km/h (2 Bft) 97,87 %
01.07.2022 07:24 14,1 C 13,9 C 10,6 C 94 % 1016,9 hPa 0,0 l/m 0 min 0 min 49 W/m 6,4 km/h (2 Bft) 97,87 %
01.07.2022 07:26 14,1 C 13,9 C 10,6 C 94 % 1016,8 hPa 0,0 l/m 0 min 0 min 57 W/m 3,2 km/h (1 Bft) 93,62 %
01.07.2022 07:28 14,2 C 13,9 C 11,1 C 95 % 1016,8 hPa 0,0 l/m 0 min 0 min 64 W/m 6,4 km/h (2 Bft) 97,87 %
01.07.2022 07:30 14,2 C 13,9 C 11,1 C 95 % 1016,8 hPa 0,0 l/m 0 min 0 min 72 W/m 3,2 km/h (1 Bft) 97,83 %
01.07.2022 07:32 14,2 C 13,9 C 11,1 C 95 % 1016,8 hPa 0,0 l/m 0 min 0 min 81 W/m 6,4 km/h (2 Bft) 97,87 %
01.07.2022 07:34 14,3 C 13,9 C 11,1 C 94 % 1016,8 hPa 0,0 l/m 0 min 0 min 86 W/m 9,7 km/h (2 Bft) 95,74 %
01.07.2022 07:36 14,3 C 13,9 C 11,1 C 94 % 1016,8 hPa 0,0 l/m 0 min 0 min 88 W/m 6,4 km/h (2 Bft) 97,87 %
01.07.2022 07:38 14,3 C 13,9 C 11,1 C 94 % 1016,9 hPa 0,0 l/m 0 min 0 min 93 W/m 19,3 km/h (3 Bft) 95,74 %
01.07.2022 07:40 14,3 C 13,9 C 11,1 C 94 % 1016,9 hPa 0,0 l/m 0 min 0 min 101 W/m 6,4 km/h (2 Bft) 97,87 %
01.07.2022 07:42 14,3 C 13,9 C 11,1 C 94 % 1017,0 hPa 0,0 l/m 0 min 0 min 110 W/m 9,7 km/h (2 Bft) 95,65 %
01.07.2022 07:44 14,3 C 14,4 C 11,1 C 94 % 1017,1 hPa 0,0 l/m 0 min 0 min 117 W/m 6,4 km/h (2 Bft) 97,87 %
01.07.2022 07:46 14,3 C 14,4 C 11,1 C 94 % 1017,0 hPa 0,0 l/m 0 min 0 min 118 W/m 12,9 km/h (3 Bft) 95,74 %
01.07.2022 07:48 14,3 C 14,4 C 11,1 C 94 % 1017,0 hPa 0,0 l/m 0 min 0 min 114 W/m 12,9 km/h (3 Bft) 100,00 %
01.07.2022 07:50 14,3 C 14,4 C 11,1 C 94 % 1017,1 hPa 0,0 l/m 0 min 0 min 107 W/m 6,4 km/h (2 Bft) 97,87 %
01.07.2022 07:52 14,3 C 14,4 C 11,1 C 94 % 1017,1 hPa 0,0 l/m 0 min 0 min 109 W/m 12,9 km/h (3 Bft) 100,00 %
01.07.2022 07:54 14,4 C 14,4 C 11,1 C 94 % 1017,2 hPa 0,0 l/m 0 min 0 min 114 W/m 6,4 km/h (2 Bft) 100,00 %
01.07.2022 07:56 14,4 C 14,4 C 11,1 C 94 % 1017,1 hPa 0,0 l/m 0 min 0 min 119 W/m 3,2 km/h (1 Bft) 100,00 %
01.07.2022 07:58 14,4 C 14,4 C 11,1 C 94 % 1017,2 hPa 0,0 l/m 0 min 0 min 122 W/m 9,7 km/h (2 Bft) 100,00 %
01.07.2022 08:00 14,4 C 14,4 C 11,1 C 94 % 1017,2 hPa 0,0 l/m 0 min 0 min 113 W/m 6,4 km/h (2 Bft) 100,00 %
01.07.2022 08:02 14,5 C 14,4 C 11,1 C 94 % 1017,2 hPa 0,0 l/m 0 min 0 min 104 W/m 12,9 km/h (3 Bft) 100,00 %
01.07.2022 08:04 14,5 C 14,4 C 11,1 C 94 % 1017,1 hPa 0,0 l/m 0 min 0 min 107 W/m 6,4 km/h (2 Bft) 100,00 %
01.07.2022 08:06 14,5 C 14,4 C 11,1 C 94 % 1017,1 hPa 0,0 l/m 0 min 0 min 115 W/m 12,9 km/h (3 Bft) 100,00 %
01.07.2022 08:08 14,5 C 14,4 C 11,1 C 93 % 1017,1 hPa 0,0 l/m 0 min 0 min 131 W/m 12,9 km/h (3 Bft) 100,00 %
01.07.2022 08:10 14,5 C 14,4 C 11,7 C 93 % 1017,1 hPa 0,0 l/m 0 min 0 min 145 W/m 12,9 km/h (3 Bft) 100,00 %
01.07.2022 08:12 14,6 C 14,4 C 11,7 C 93 % 1017,2 hPa 0,0 l/m 0 min 0 min 153 W/m 6,4 km/h (2 Bft) 100,00 %
01.07.2022 08:14 14,6 C 14,4 C 11,7 C 93 % 1017,3 hPa 0,0 l/m 0 min 0 min 158 W/m 12,9 km/h (3 Bft) 95,74 %
01.07.2022 08:16 14,6 C 14,4 C 11,7 C 93 % 1017,2 hPa 0,0 l/m 0 min 0 min 149 W/m 3,2 km/h (1 Bft) 97,83 %
01.07.2022 08:18 14,7 C 15,0 C 11,7 C 93 % 1017,2 hPa 0,0 l/m 0 min 0 min 131 W/m 6,4 km/h (2 Bft) 100,00 %
01.07.2022 08:20 14,7 C 15,0 C 11,7 C 93 % 1017,1 hPa 0,0 l/m 0 min 0 min 104 W/m 6,4 km/h (2 Bft) 100,00 %
01.07.2022 08:22 14,8 C 14,4 C 11,7 C 93 % 1017,2 hPa 0,0 l/m 0 min 0 min 76 W/m 3,2 km/h (1 Bft) 100,00 %
01.07.2022 08:24 14,8 C 14,4 C 11,7 C 93 % 1017,2 hPa 0,0 l/m 0 min 0 min 58 W/m 6,4 km/h (2 Bft) 97,87 %
01.07.2022 08:26 14,8 C 14,4 C 11,7 C 93 % 1017,3 hPa 0,0 l/m 0 min 0 min 51 W/m 9,7 km/h (2 Bft) 100,00 %
01.07.2022 08:28 14,8 C 14,4 C 11,7 C 93 % 1017,3 hPa 0,0 l/m 0 min 0 min 56 W/m 19,3 km/h (3 Bft) 97,83 %
01.07.2022 08:30 14,8 C 14,4 C 11,1 C 93 % 1017,4 hPa 0,0 l/m 0 min 0 min 52 W/m 12,9 km/h (3 Bft) 97,87 %
01.07.2022 08:32 14,7 C 14,4 C 11,1 C 92 % 1017,4 hPa 0,0 l/m 0 min 0 min 50 W/m 6,4 km/h (2 Bft) 97,87 %
01.07.2022 08:34 14,7 C 14,4 C 11,1 C 92 % 1017,4 hPa 0,0 l/m 0 min 0 min 71 W/m 9,7 km/h (2 Bft) 97,87 %
01.07.2022 08:36 14,7 C 14,4 C 11,1 C 92 % 1017,5 hPa 0,0 l/m 0 min 0 min 65 W/m 6,4 km/h (2 Bft) 95,74 %
01.07.2022 08:38 14,7 C 14,4 C 11,1 C 92 % 1017,6 hPa 0,0 l/m 0 min 0 min 69 W/m 6,4 km/h (2 Bft) 97,87 %
01.07.2022 08:40 14,7 C 14,4 C 11,7 C 92 % 1017,6 hPa 0,0 l/m 0 min 0 min 68 W/m 6,4 km/h (2 Bft) 95,65 %
01.07.2022 08:42 14,7 C 14,4 C 11,1 C 92 % 1017,6 hPa 0,0 l/m 0 min 0 min 72 W/m 6,4 km/h (2 Bft) 97,87 %
01.07.2022 08:44 14,7 C 14,4 C 11,7 C 92 % 1017,6 hPa 0,0 l/m 0 min 0 min 84 W/m 6,4 km/h (2 Bft) 97,87 %
01.07.2022 08:46 14,7 C 14,4 C 11,7 C 92 % 1017,5 hPa 0,0 l/m 0 min 0 min 86 W/m 9,7 km/h (2 Bft) 95,74 %
01.07.2022 08:48 14,7 C 14,4 C 11,7 C 92 % 1017,5 hPa 0,0 l/m 0 min 0 min 85 W/m 3,2 km/h (1 Bft) 91,49 %
01.07.2022 08:50 14,7 C 14,4 C 11,7 C 92 % 1017,5 hPa 0,0 l/m 0 min 0 min 96 W/m 9,7 km/h (2 Bft) 95,74 %
01.07.2022 08:52 14,7 C 14,4 C 11,7 C 91 % 1017,5 hPa 0,0 l/m 0 min 0 min 104 W/m 16,1 km/h (3 Bft) 95,65 %
01.07.2022 08:54 14,7 C 14,4 C 11,7 C 91 % 1017,6 hPa 0,0 l/m 0 min 0 min 112 W/m 12,9 km/h (3 Bft) 95,74 %
01.07.2022 08:56 14,8 C 14,4 C 11,7 C 91 % 1017,6 hPa 0,0 l/m 0 min 0 min 110 W/m 6,4 km/h (2 Bft) 93,62 %
01.07.2022 08:58 14,8 C 15,0 C 11,7 C 91 % 1017,6 hPa 0,0 l/m 0 min 0 min 145 W/m 6,4 km/h (2 Bft) 95,74 %
01.07.2022 09:00 14,9 C 15,0 C 11,7 C 91 % 1017,6 hPa 0,0 l/m 0 min 0 min 241 W/m 6,4 km/h (2 Bft) 95,74 %
01.07.2022 09:02 14,9 C 15,6 C 12,2 C 92 % 1017,6 hPa 0,0 l/m 2 min 0 min 279 W/m 9,7 km/h (2 Bft) 93,62 %
01.07.2022 09:04 15,0 C 15,6 C 12,2 C 92 % 1017,6 hPa 0,0 l/m 2 min 0 min 280 W/m 3,2 km/h (1 Bft) 93,48 %
01.07.2022 09:06 15,1 C 15,6 C 12,2 C 92 % 1017,6 hPa 0,0 l/m 2 min 0 min 252 W/m 6,4 km/h (2 Bft) 93,62 %
01.07.2022 09:08 15,1 C 15,6 C 12,8 C 91 % 1017,7 hPa 0,0 l/m 0 min 0 min 239 W/m 19,3 km/h (3 Bft) 93,62 %
01.07.2022 09:10 15,1 C 15,6 C 12,2 C 91 % 1017,8 hPa 0,0 l/m 0 min 0 min 207 W/m 12,9 km/h (3 Bft) 93,62 %
01.07.2022 09:12 15,1 C 15,6 C 12,2 C 91 % 1017,9 hPa 0,0 l/m 0 min 0 min 177 W/m 16,1 km/h (3 Bft) 93,62 %
01.07.2022 09:14 15,2 C 15,6 C 12,2 C 91 % 1018,0 hPa 0,0 l/m 0 min 0 min 183 W/m 12,9 km/h (3 Bft) 93,62 %
01.07.2022 09:16 15,2 C 15,6 C 12,2 C 91 % 1017,8 hPa 0,0 l/m 0 min 0 min 219 W/m 6,4 km/h (2 Bft) 93,48 %
01.07.2022 09:18 15,3 C 15,6 C 12,8 C 91 % 1017,8 hPa 0,0 l/m 0 min 0 min 226 W/m 6,4 km/h (2 Bft) 93,62 %
01.07.2022 09:20 15,3 C 15,6 C 12,8 C 91 % 1017,8 hPa 0,0 l/m 0 min 0 min 236 W/m 6,4 km/h (2 Bft) 95,74 %
01.07.2022 09:22 15,4 C 16,1 C 12,8 C 90 % 1017,9 hPa 0,0 l/m 0 min 0 min 244 W/m 6,4 km/h (2 Bft) 95,74 %
01.07.2022 09:24 15,4 C 15,6 C 12,8 C 90 % 1017,9 hPa 0,0 l/m 0 min 0 min 244 W/m 9,7 km/h (2 Bft) 93,62 %
01.07.2022 09:26 15,4 C 16,1 C 12,8 C 90 % 1017,8 hPa 0,0 l/m 0 min 0 min 249 W/m 6,4 km/h (2 Bft) 93,62 %
01.07.2022 09:28 15,4 C 16,1 C 12,8 C 90 % 1017,7 hPa 0,0 l/m 0 min 0 min 265 W/m 6,4 km/h (2 Bft) 95,65 %
01.07.2022 09:30 15,5 C 16,1 C 12,8 C 89 % 1017,8 hPa 0,0 l/m 2 min 0 min 324 W/m 16,1 km/h (3 Bft) 95,74 %
01.07.2022 09:32 15,6 C 16,7 C 12,8 C 89 % 1017,8 hPa 0,0 l/m 2 min 0 min 322 W/m 6,4 km/h (2 Bft) 95,74 %
01.07.2022 09:34 15,7 C 16,7 C 13,3 C 89 % 1017,8 hPa 0,0 l/m 0 min 0 min 276 W/m 6,4 km/h (2 Bft) 100,00 %
01.07.2022 09:36 15,7 C 16,7 C 13,3 C 89 % 1017,9 hPa 0,0 l/m 0 min 0 min 230 W/m 19,3 km/h (3 Bft) 97,87 %
01.07.2022 09:38 15,8 C 16,7 C 13,3 C 89 % 1017,9 hPa 0,0 l/m 0 min 0 min 248 W/m 9,7 km/h (2 Bft) 97,83 %
01.07.2022 09:40 15,8 C 16,1 C 12,8 C 88 % 1017,8 hPa 0,0 l/m 0 min 0 min 134 W/m 16,1 km/h (3 Bft) 97,87 %
01.07.2022 09:42 15,8 C 15,6 C 12,8 C 88 % 1017,8 hPa 0,0 l/m 0 min 0 min 107 W/m 16,1 km/h (3 Bft) 95,74 %
01.07.2022 09:44 15,8 C 15,6 C 12,8 C 88 % 1017,9 hPa 0,0 l/m 0 min 0 min 150 W/m 12,9 km/h (3 Bft) 97,87 %
01.07.2022 09:46 15,8 C 15,6 C 12,8 C 87 % 1017,9 hPa 0,0 l/m 0 min 0 min 145 W/m 6,4 km/h (2 Bft) 97,87 %
01.07.2022 09:48 15,8 C 16,1 C 12,8 C 88 % 1017,9 hPa 0,0 l/m 0 min 0 min 232 W/m 6,4 km/h (2 Bft) 100,00 %
01.07.2022 09:50 15,9 C 16,7 C 13,3 C 88 % 1017,9 hPa 0,0 l/m 2 min 0 min 304 W/m 6,4 km/h (2 Bft) 100,00 %
01.07.2022 09:52 15,9 C 17,2 C 13,3 C 88 % 1018,0 hPa 0,0 l/m 2 min 0 min 430 W/m 19,3 km/h (3 Bft) 100,00 %
01.07.2022 09:54 16,0 C 17,2 C 13,9 C 87 % 1018,0 hPa 0,0 l/m 2 min 0 min 396 W/m 6,4 km/h (2 Bft) 100,00 %
01.07.2022 09:56 16,1 C 17,2 C 13,9 C 87 % 1018,0 hPa 0,0 l/m 2 min 0 min 305 W/m 12,9 km/h (3 Bft) 100,00 %
01.07.2022 09:58 16,2 C 17,2 C 13,9 C 87 % 1018,0 hPa 0,0 l/m 0 min 0 min 267 W/m 9,7 km/h (2 Bft) 100,00 %
01.07.2022 10:00 16,2 C 17,2 C 13,9 C 87 % 1018,0 hPa 0,0 l/m 0 min 0 min 286 W/m 6,4 km/h (2 Bft) 97,87 %
01.07.2022 10:02 16,3 C 17,2 C 13,9 C 87 % 1018,1 hPa 0,0 l/m 0 min 0 min 294 W/m 6,4 km/h (2 Bft) 100,00 %
01.07.2022 10:04 16,4 C 17,8 C 14,4 C 87 % 1018,1 hPa 0,0 l/m 0 min 0 min 271 W/m 16,1 km/h (3 Bft) 100,00 %
01.07.2022 10:06 16,4 C 17,8 C 15,0 C 86 % 1018,2 hPa 0,0 l/m 2 min 0 min 744 W/m 16,1 km/h (3 Bft) 100,00 %
01.07.2022 10:08 16,6 C 17,8 C 14,4 C 85 % 1018,1 hPa 0,0 l/m 2 min 0 min 735 W/m 9,7 km/h (2 Bft) 100,00 %
01.07.2022 10:10 16,6 C 18,3 C 15,0 C 85 % 1018,1 hPa 0,0 l/m 2 min 0 min 735 W/m 9,7 km/h (2 Bft) 100,00 %
01.07.2022 10:12 16,7 C 18,3 C 15,0 C 85 % 1018,1 hPa 0,0 l/m 2 min 0 min 680 W/m 6,4 km/h (2 Bft) 100,00 %
01.07.2022 10:14 16,8 C 18,9 C 15,6 C 85 % 1018,1 hPa 0,0 l/m 2 min 0 min 436 W/m 6,4 km/h (2 Bft) 100,00 %
01.07.2022 10:16 17,0 C 19,4 C 16,1 C 85 % 1018,2 hPa 0,0 l/m 0 min 0 min 311 W/m 12,9 km/h (3 Bft) 100,00 %
01.07.2022 10:18 17,1 C 20,6 C 17,2 C 85 % 1018,2 hPa 0,0 l/m 2 min 0 min 801 W/m 9,7 km/h (2 Bft) 100,00 %
01.07.2022 10:20 17,3 C 20,6 C 17,2 C 84 % 1018,3 hPa 0,0 l/m 2 min 0 min 782 W/m 16,1 km/h (3 Bft) 100,00 %
01.07.2022 10:22 17,4 C 20,0 C 17,2 C 84 % 1018,3 hPa 0,0 l/m 2 min 0 min 762 W/m 6,4 km/h (2 Bft) 97,87 %
01.07.2022 10:24 17,6 C 20,0 C 16,7 C 84 % 1018,2 hPa 0,0 l/m 0 min 0 min 318 W/m 6,4 km/h (2 Bft) 97,87 %
01.07.2022 10:26 17,7 C 20,0 C 17,2 C 83 % 1018,3 hPa 0,0 l/m 2 min 0 min 609 W/m 16,1 km/h (3 Bft) 100,00 %
01.07.2022 10:28 17,8 C 20,6 C 17,8 C 83 % 1018,2 hPa 0,0 l/m 2 min 0 min 942 W/m 12,9 km/h (3 Bft) 100,00 %
01.07.2022 10:30 17,9 C 20,6 C 17,8 C 83 % 1018,2 hPa 0,0 l/m 2 min 0 min 741 W/m 16,1 km/h (3 Bft) 100,00 %
01.07.2022 10:32 17,9 C 19,4 C 17,2 C 80 % 1018,4 hPa 0,0 l/m 2 min 0 min 490 W/m 16,1 km/h (3 Bft) 100,00 %
01.07.2022 10:34 18,0 C 18,9 C 16,7 C 80 % 1018,3 hPa 0,0 l/m 0 min 0 min 234 W/m 9,7 km/h (2 Bft) 100,00 %
01.07.2022 10:36 18,1 C 18,9 C 17,2 C 80 % 1018,3 hPa 0,0 l/m 0 min 0 min 234 W/m 9,7 km/h (2 Bft) 100,00 %
01.07.2022 10:38 18,1 C 18,9 C 16,7 C 80 % 1018,3 hPa 0,0 l/m 0 min 0 min 201 W/m 12,9 km/h (3 Bft) 100,00 %
01.07.2022 10:40 17,9 C 18,3 C 16,1 C 79 % 1018,4 hPa 0,0 l/m 0 min 0 min 137 W/m 19,3 km/h (3 Bft) 100,00 %
01.07.2022 10:42 17,9 C 18,3 C 16,7 C 79 % 1018,4 hPa 0,0 l/m 2 min 0 min 535 W/m 16,1 km/h (3 Bft) 100,00 %
01.07.2022 10:44 17,8 C 18,9 C 17,2 C 78 % 1018,5 hPa 0,0 l/m 2 min 0 min 790 W/m 9,7 km/h (2 Bft) 100,00 %
01.07.2022 10:46 17,8 C 18,9 C 17,2 C 78 % 1018,4 hPa 0,0 l/m 2 min 0 min 485 W/m 6,4 km/h (2 Bft) 100,00 %
01.07.2022 10:48 17,9 C 19,4 C 17,8 C 79 % 1018,4 hPa 0,0 l/m 2 min 0 min 610 W/m 9,7 km/h (2 Bft) 100,00 %
01.07.2022 10:50 18,0 C 20,0 C 18,3 C 78 % 1018,4 hPa 0,0 l/m 2 min 0 min 925 W/m 16,1 km/h (3 Bft) 100,00 %
01.07.2022 10:52 18,1 C 20,0 C 18,3 C 76 % 1018,3 hPa 0,0 l/m 2 min 0 min 1000 W/m 12,9 km/h (3 Bft) 100,00 %
01.07.2022 10:54 18,2 C 20,6 C 18,3 C 77 % 1018,4 hPa 0,0 l/m 2 min 0 min 1002 W/m 22,5 km/h (4 Bft) 100,00 %
01.07.2022 10:56 18,3 C 20,6 C 17,8 C 76 % 1018,4 hPa 0,0 l/m 2 min 0 min 926 W/m 22,5 km/h (4 Bft) 100,00 %
01.07.2022 10:58 18,3 C 20,0 C 17,2 C 75 % 1018,5 hPa 0,0 l/m 2 min 0 min 898 W/m 22,5 km/h (4 Bft) 97,87 %
01.07.2022 11:00 18,2 C 19,4 C 16,7 C 75 % 1018,6 hPa 0,0 l/m 2 min 0 min 572 W/m 32,2 km/h (5 Bft) 100,00 %
01.07.2022 11:02 18,2 C 19,4 C 16,1 C 75 % 1018,5 hPa 0,0 l/m 2 min 0 min 416 W/m 12,9 km/h (3 Bft) 100,00 %
01.07.2022 11:04 18,3 C 18,9 C 16,1 C 75 % 1018,6 hPa 0,0 l/m 0 min 0 min 341 W/m 6,4 km/h (2 Bft) 100,00 %
01.07.2022 11:06 18,3 C 18,9 C 16,1 C 76 % 1018,6 hPa 0,0 l/m 2 min 0 min 373 W/m 12,9 km/h (3 Bft) 97,87 %
01.07.2022 11:08 18,3 C 18,9 C 16,1 C 75 % 1018,7 hPa 0,0 l/m 2 min 0 min 485 W/m 9,7 km/h (2 Bft) 97,87 %
01.07.2022 11:10 18,4 C 18,9 C 15,6 C 75 % 1018,6 hPa 0,0 l/m 0 min 0 min 365 W/m 9,7 km/h (2 Bft) 100,00 %
01.07.2022 11:12 18,4 C 18,9 C 15,6 C 75 % 1018,7 hPa 0,0 l/m 0 min 0 min 366 W/m 6,4 km/h (2 Bft) 97,87 %
01.07.2022 11:14 18,4 C 18,9 C 15,6 C 75 % 1018,8 hPa 0,0 l/m 0 min 0 min 367 W/m 12,9 km/h (3 Bft) 100,00 %
01.07.2022 11:16 18,3 C 18,9 C 15,6 C 74 % 1018,7 hPa 0,0 l/m 0 min 0 min 370 W/m 12,9 km/h (3 Bft) 100,00 %
01.07.2022 11:18 18,3 C 18,9 C 15,6 C 75 % 1018,7 hPa 0,0 l/m 2 min 0 min 436 W/m 12,9 km/h (3 Bft) 97,87 %
01.07.2022 11:20 18,2 C 18,3 C 15,6 C 74 % 1018,7 hPa 0,0 l/m 2 min 0 min 387 W/m 12,9 km/h (3 Bft) 95,74 %
01.07.2022 11:22 18,2 C 18,3 C 15,0 C 74 % 1018,7 hPa 0,0 l/m 0 min 0 min 366 W/m 9,7 km/h (2 Bft) 95,74 %
01.07.2022 11:24 18,1 C 18,3 C 15,6 C 74 % 1018,7 hPa 0,0 l/m 2 min 0 min 413 W/m 6,4 km/h (2 Bft) 91,49 %
01.07.2022 11:26 18,2 C 18,9 C 15,6 C 75 % 1018,7 hPa 0,0 l/m 2 min 0 min 479 W/m 9,7 km/h (2 Bft) 95,74 %
01.07.2022 11:28 18,2 C 18,9 C 15,6 C 76 % 1018,7 hPa 0,0 l/m 2 min 0 min 393 W/m 6,4 km/h (2 Bft) 95,65 %
01.07.2022 11:30 18,2 C 18,9 C 15,6 C 75 % 1018,7 hPa 0,0 l/m 0 min 0 min 350 W/m 6,4 km/h (2 Bft) 95,74 %
01.07.2022 11:32 18,2 C 18,9 C 15,6 C 75 % 1018,8 hPa 0,0 l/m 2 min 0 min 410 W/m 9,7 km/h (2 Bft) 95,74 %
01.07.2022 11:34 18,2 C 18,9 C 15,6 C 74 % 1018,7 hPa 0,0 l/m 2 min 0 min 391 W/m 12,9 km/h (3 Bft) 95,74 %
01.07.2022 11:36 18,1 C 18,3 C 15,6 C 75 % 1018,7 hPa 0,0 l/m 2 min 0 min 429 W/m 9,7 km/h (2 Bft) 95,74 %
01.07.2022 11:38 18,1 C 18,9 C 15,6 C 75 % 1018,7 hPa 0,0 l/m 2 min 0 min 452 W/m 6,4 km/h (2 Bft) 95,65 %
01.07.2022 11:40 18,2 C 19,4 C 16,1 C 75 % 1018,7 hPa 0,0 l/m 2 min 0 min 509 W/m 6,4 km/h (2 Bft) 95,74 %
01.07.2022 11:42 18,3 C 20,6 C 17,2 C 75 % 1018,7 hPa 0,0 l/m 2 min 0 min 948 W/m 12,9 km/h (3 Bft) 91,49 %
01.07.2022 11:44 18,4 C 21,1 C 18,3 C 74 % 1018,7 hPa 0,0 l/m 2 min 0 min 997 W/m 12,9 km/h (3 Bft) 95,74 %
01.07.2022 11:46 18,6 C 21,1 C 17,8 C 74 % 1018,7 hPa 0,0 l/m 2 min 0 min 894 W/m 12,9 km/h (3 Bft) 95,74 %
01.07.2022 11:48 18,6 C 20,0 C 17,2 C 73 % 1018,7 hPa 0,0 l/m 0 min 0 min 374 W/m 12,9 km/h (3 Bft) 95,74 %
01.07.2022 11:50 18,6 C 19,4 C 16,7 C 73 % 1018,6 hPa 0,0 l/m 2 min 0 min 407 W/m 9,7 km/h (2 Bft) 95,74 %
01.07.2022 11:52 18,6 C 19,4 C 16,7 C 73 % 1018,7 hPa 0,0 l/m 0 min 0 min 371 W/m 6,4 km/h (2 Bft) 95,65 %
01.07.2022 11:54 18,5 C 18,9 C 16,1 C 73 % 1018,8 hPa 0,0 l/m 0 min 0 min 360 W/m 16,1 km/h (3 Bft) 95,74 %
01.07.2022 11:56 18,5 C 18,9 C 16,1 C 73 % 1018,7 hPa 0,0 l/m 0 min 0 min 362 W/m 19,3 km/h (3 Bft) 95,74 %
01.07.2022 11:58 18,4 C 18,9 C 15,6 C 72 % 1018,7 hPa 0,0 l/m 0 min 0 min 303 W/m 12,9 km/h (3 Bft) 97,87 %
01.07.2022 12:00 18,4 C 18,9 C 15,6 C 73 % 1018,8 hPa 0,0 l/m 0 min 0 min 371 W/m 22,5 km/h (4 Bft) 100,00 %
01.07.2022 12:02 18,4 C 18,9 C 16,1 C 73 % 1018,8 hPa 0,0 l/m 2 min 0 min 424 W/m 12,9 km/h (3 Bft) 100,00 %
01.07.2022 12:04 18,6 C 20,0 C 16,7 C 74 % 1018,7 hPa 0,0 l/m 2 min 0 min 424 W/m 6,4 km/h (2 Bft) 95,74 %
01.07.2022 12:07 18,7 C 20,6 C 17,2 C 73 % 1018,7 hPa 0,0 l/m 3 min 0 min 814 W/m 9,7 km/h (2 Bft) 98,59 %
01.07.2022 12:08 18,8 C 21,1 C 17,8 C 73 % 1018,7 hPa 0,0 l/m 1 min 0 min 904 W/m 12,9 km/h (3 Bft) 100,00 %
01.07.2022 12:10 19,0 C 21,1 C 17,8 C 73 % 1018,7 hPa 0,0 l/m 2 min 0 min 1000 W/m 12,9 km/h (3 Bft) 97,87 %
01.07.2022 12:12 19,1 C 20,6 C 17,8 C 72 % 1018,7 hPa 0,0 l/m 2 min 0 min 1000 W/m 12,9 km/h (3 Bft) 100,00 %
01.07.2022 12:14 19,1 C 20,6 C 17,8 C 72 % 1018,7 hPa 0,0 l/m 2 min 0 min 959 W/m 12,9 km/h (3 Bft) 97,83 %
01.07.2022 12:16 19,2 C 20,6 C 19,4 C 72 % 1018,9 hPa 0,0 l/m 2 min 0 min 961 W/m 19,3 km/h (3 Bft) 97,87 %
01.07.2022 12:18 19,2 C 20,6 C 19,4 C 71 % 1018,8 hPa 0,0 l/m 2 min 0 min 1095 W/m 22,5 km/h (4 Bft) 100,00 %
01.07.2022 12:20 19,2 C 20,0 C 18,3 C 70 % 1018,8 hPa 0,0 l/m 0 min 0 min 276 W/m 6,4 km/h (2 Bft) 97,87 %
01.07.2022 12:22 19,2 C 20,0 C 18,3 C 72 % 1018,8 hPa 0,0 l/m 0 min 0 min 274 W/m 12,9 km/h (3 Bft) 97,87 %
01.07.2022 12:24 19,1 C 19,4 C 17,2 C 70 % 1018,8 hPa 0,0 l/m 0 min 0 min 246 W/m 9,7 km/h (2 Bft) 100,00 %
01.07.2022 12:26 19,1 C 18,9 C 16,7 C 70 % 1018,8 hPa 0,0 l/m 0 min 0 min 207 W/m 12,9 km/h (3 Bft) 97,83 %
01.07.2022 12:28 19,0 C 18,9 C 16,7 C 71 % 1018,8 hPa 0,0 l/m 0 min 0 min 206 W/m 12,9 km/h (3 Bft) 100,00 %
01.07.2022 12:30 18,9 C 18,9 C 17,2 C 70 % 1018,7 hPa 0,0 l/m 0 min 0 min 234 W/m 16,1 km/h (3 Bft) 97,92 %
01.07.2022 12:32 18,9 C 20,0 C 20,0 C 71 % 1018,7 hPa 0,0 l/m 2 min 0 min 993 W/m 16,1 km/h (3 Bft) 100,00 %
01.07.2022 12:34 19,1 C 20,6 C 21,7 C 69 % 1018,8 hPa 0,0 l/m 2 min 0 min 984 W/m 19,3 km/h (3 Bft) 97,87 %
01.07.2022 12:36 19,3 C 20,6 C 23,3 C 69 % 1018,8 hPa 0,0 l/m 2 min 0 min 991 W/m 19,3 km/h (3 Bft) 96,36 %
01.07.2022 12:38 19,4 C 21,1 C 23,9 C 68 % 1018,8 hPa 0,0 l/m 2 min 0 min 976 W/m 19,3 km/h (3 Bft) 97,87 %
01.07.2022 12:40 19,6 C 21,7 C 24,4 C 68 % 1018,8 hPa 0,0 l/m 2 min 0 min 990 W/m 16,1 km/h (3 Bft) 97,83 %
01.07.2022 12:42 19,8 C 21,7 C 24,4 C 68 % 1018,8 hPa 0,0 l/m 2 min 0 min 1014 W/m 16,1 km/h (3 Bft) 95,74 %
01.07.2022 12:44 20,1 C 22,2 C 24,4 C 68 % 1018,8 hPa 0,0 l/m 2 min 0 min 1028 W/m 12,9 km/h (3 Bft) 97,87 %
01.07.2022 12:46 20,4 C 22,2 C 25,0 C 67 % 1018,8 hPa 0,0 l/m 2 min 0 min 1021 W/m 22,5 km/h (4 Bft) 97,87 %
01.07.2022 12:48 20,6 C 21,7 C 22,8 C 65 % 1018,7 hPa 0,0 l/m 2 min 0 min 1049 W/m 22,5 km/h (4 Bft) 97,87 %
01.07.2022 12:50 20,6 C 21,1 C 21,1 C 65 % 1018,7 hPa 0,0 l/m 0 min 0 min 172 W/m 12,9 km/h (3 Bft) 95,74 %
01.07.2022 12:52 20,6 C 21,1 C 22,2 C 65 % 1018,7 hPa 0,0 l/m 2 min 0 min 762 W/m 16,1 km/h (3 Bft) 97,83 %
01.07.2022 12:54 20,8 C 21,7 C 22,8 C 66 % 1018,7 hPa 0,0 l/m 2 min 0 min 924 W/m 6,4 km/h (2 Bft) 97,87 %
01.07.2022 12:56 20,9 C 21,7 C 22,2 C 64 % 1018,8 hPa 0,0 l/m 2 min 0 min 921 W/m 9,7 km/h (2 Bft) 97,87 %
01.07.2022 12:58 20,9 C 22,2 C 22,8 C 64 % 1018,7 hPa 0,0 l/m 2 min 0 min 887 W/m 9,7 km/h (2 Bft) 97,87 %
01.07.2022 13:00 21,0 C 21,7 C 22,8 C 63 % 1018,8 hPa 0,0 l/m 2 min 0 min 744 W/m 19,3 km/h (3 Bft) 95,74 %
01.07.2022 13:02 20,9 C 21,7 C 22,8 C 61 % 1018,8 hPa 0,0 l/m 2 min 0 min 701 W/m 19,3 km/h (3 Bft) 97,87 %
01.07.2022 13:04 20,9 C 21,7 C 22,2 C 62 % 1018,7 hPa 0,0 l/m 2 min 0 min 701 W/m 12,9 km/h (3 Bft) 97,83 %
01.07.2022 13:06 20,9 C 22,2 C 21,7 C 61 % 1018,8 hPa 0,0 l/m 2 min 0 min 701 W/m 22,5 km/h (4 Bft) 97,87 %
01.07.2022 13:08 20,9 C 22,2 C 21,1 C 60 % 1018,7 hPa 0,0 l/m 2 min 0 min 775 W/m 16,1 km/h (3 Bft) 97,87 %
01.07.2022 13:10 20,9 C 22,2 C 20,6 C 60 % 1018,7 hPa 0,0 l/m 2 min 0 min 1037 W/m 19,3 km/h (3 Bft) 97,87 %
01.07.2022 13:12 20,9 C 22,2 C 20,6 C 60 % 1018,7 hPa 0,0 l/m 2 min 0 min 1022 W/m 22,5 km/h (4 Bft) 97,87 %
01.07.2022 13:14 21,1 C 22,8 C 20,0 C 62 % 1018,7 hPa 0,0 l/m 2 min 0 min 1026 W/m 19,3 km/h (3 Bft) 95,65 %
01.07.2022 13:16 21,2 C 22,8 C 20,0 C 61 % 1018,6 hPa 0,0 l/m 2 min 0 min 1049 W/m 12,9 km/h (3 Bft) 97,87 %
01.07.2022 13:18 21,3 C 22,2 C 19,4 C 60 % 1018,6 hPa 0,0 l/m 2 min 0 min 681 W/m 16,1 km/h (3 Bft) 93,62 %
01.07.2022 13:20 21,4 C 22,8 C 19,4 C 61 % 1018,6 hPa 0,0 l/m 2 min 0 min 759 W/m 16,1 km/h (3 Bft) 95,74 %
01.07.2022 13:22 21,5 C 22,2 C 19,4 C 58 % 1018,7 hPa 0,0 l/m 2 min 0 min 1081 W/m 19,3 km/h (3 Bft) 100,00 %
01.07.2022 13:24 21,4 C 22,2 C 19,4 C 59 % 1018,7 hPa 0,0 l/m 0 min 0 min 309 W/m 16,1 km/h (3 Bft) 97,87 %
01.07.2022 13:26 21,4 C 22,2 C 19,4 C 58 % 1018,6 hPa 0,0 l/m 2 min 0 min 1050 W/m 19,3 km/h (3 Bft) 97,83 %
01.07.2022 13:28 21,5 C 22,8 C 19,4 C 60 % 1018,6 hPa 0,0 l/m 2 min 0 min 1047 W/m 16,1 km/h (3 Bft) 95,74 %
01.07.2022 13:30 21,6 C 22,2 C 19,4 C 58 % 1018,5 hPa 0,0 l/m 2 min 0 min 625 W/m 25,7 km/h (4 Bft) 91,49 %
01.07.2022 13:32 21,6 C 22,8 C 20,0 C 60 % 1018,6 hPa 0,0 l/m 2 min 0 min 757 W/m 12,9 km/h (3 Bft) 95,74 %
01.07.2022 13:34 21,8 C 23,3 C 21,1 C 58 % 1018,6 hPa 0,0 l/m 2 min 0 min 1057 W/m 29,0 km/h (5 Bft) 95,74 %
01.07.2022 13:36 21,7 C 23,3 C 22,2 C 58 % 1018,5 hPa 0,0 l/m 2 min 0 min 1064 W/m 25,7 km/h (4 Bft) 95,74 %
01.07.2022 13:38 21,8 C 23,9 C 23,3 C 59 % 1018,6 hPa 0,0 l/m 2 min 0 min 1113 W/m 12,9 km/h (3 Bft) 95,65 %
01.07.2022 13:40 21,8 C 23,9 C 24,4 C 58 % 1018,5 hPa 0,0 l/m 2 min 0 min 1147 W/m 19,3 km/h (3 Bft) 95,74 %
01.07.2022 13:42 22,0 C 23,9 C 24,4 C 59 % 1018,6 hPa 0,0 l/m 2 min 0 min 1116 W/m 22,5 km/h (4 Bft) 95,74 %
01.07.2022 13:44 22,0 C 22,8 C 22,8 C 58 % 1018,5 hPa 0,0 l/m 2 min 0 min 516 W/m 12,9 km/h (3 Bft) 93,62 %
01.07.2022 13:46 21,8 C 22,2 C 21,1 C 59 % 1018,6 hPa 0,0 l/m 0 min 0 min 222 W/m 12,9 km/h (3 Bft) 93,62 %
01.07.2022 13:48 21,7 C 22,2 C 20,6 C 59 % 1018,5 hPa 0,0 l/m 0 min 0 min 249 W/m 16,1 km/h (3 Bft) 93,62 %
01.07.2022 13:50 21,6 C 22,2 C 20,6 C 60 % 1018,5 hPa 0,0 l/m 0 min 0 min 250 W/m 19,3 km/h (3 Bft) 93,48 %
01.07.2022 13:52 21,5 C 21,7 C 20,0 C 59 % 1018,6 hPa 0,0 l/m 0 min 0 min 305 W/m 16,1 km/h (3 Bft) 97,87 %
01.07.2022 13:54 21,4 C 22,8 C 21,1 C 59 % 1018,6 hPa 0,0 l/m 0 min 0 min 420 W/m 12,9 km/h (3 Bft) 95,74 %
01.07.2022 13:56 21,6 C 23,3 C 22,2 C 60 % 1018,5 hPa 0,0 l/m 2 min 0 min 1157 W/m 16,1 km/h (3 Bft) 95,74 %
01.07.2022 13:58 21,7 C 23,9 C 22,8 C 60 % 1018,5 hPa 0,0 l/m 2 min 0 min 1167 W/m 12,9 km/h (3 Bft) 95,74 %
01.07.2022 14:00 21,7 C 22,8 C 21,7 C 58 % 1018,6 hPa 0,0 l/m 2 min 0 min 1057 W/m 32,2 km/h (5 Bft) 97,87 %
01.07.2022 14:02 21,6 C 22,8 C 20,6 C 58 % 1018,5 hPa 0,0 l/m 0 min 0 min 287 W/m 38,6 km/h (5 Bft) 95,65 %
01.07.2022 14:04 21,5 C 23,3 C 20,6 C 58 % 1018,5 hPa 0,0 l/m 2 min 0 min 1064 W/m 22,5 km/h (4 Bft) 97,87 %
01.07.2022 14:06 21,6 C 23,9 C 20,6 C 58 % 1018,6 hPa 0,0 l/m 2 min 0 min 864 W/m 22,5 km/h (4 Bft) 97,87 %
01.07.2022 14:08 21,7 C 23,9 C 20,6 C 58 % 1018,6 hPa 0,0 l/m 2 min 0 min 864 W/m 22,5 km/h (4 Bft) 97,87 %
01.07.2022 14:10 21,8 C 23,9 C 20,6 C 59 % 1018,6 hPa 0,0 l/m 2 min 0 min 863 W/m 6,4 km/h (2 Bft) 97,87 %
01.07.2022 14:12 21,8 C 22,8 C 19,4 C 58 % 1018,5 hPa 0,0 l/m 0 min 0 min 248 W/m 16,1 km/h (3 Bft) 97,87 %
01.07.2022 14:14 21,7 C 22,2 C 18,9 C 59 % 1018,7 hPa 0,0 l/m 0 min 0 min 277 W/m 12,9 km/h (3 Bft) 97,83 %
01.07.2022 14:16 21,5 C 22,2 C 18,9 C 60 % 1018,6 hPa 0,0 l/m 0 min 0 min 313 W/m 19,3 km/h (3 Bft) 97,87 %
01.07.2022 14:18 21,5 C 23,3 C 18,9 C 60 % 1018,6 hPa 0,0 l/m 2 min 0 min 840 W/m 12,9 km/h (3 Bft) 97,87 %
01.07.2022 14:20 21,6 C 23,3 C 18,9 C 60 % 1018,5 hPa 0,0 l/m 2 min 0 min 859 W/m 16,1 km/h (3 Bft) 95,74 %
01.07.2022 14:22 21,8 C 24,4 C 18,9 C 61 % 1018,6 hPa 0,0 l/m 2 min 0 min 858 W/m 12,9 km/h (3 Bft) 95,74 %
01.07.2022 14:24 21,9 C 23,9 C 18,9 C 60 % 1018,5 hPa 0,0 l/m 2 min 0 min 1035 W/m 12,9 km/h (3 Bft) 97,87 %
01.07.2022 14:26 21,9 C 23,3 C 18,9 C 59 % 1018,6 hPa 0,0 l/m 0 min 0 min 337 W/m 16,1 km/h (3 Bft) 100,00 %
01.07.2022 14:28 21,9 C 23,3 C 18,9 C 58 % 1018,6 hPa 0,0 l/m 0 min 0 min 392 W/m 12,9 km/h (3 Bft) 97,87 %
01.07.2022 14:30 21,9 C 23,3 C 18,9 C 57 % 1018,5 hPa 0,0 l/m 2 min 0 min 441 W/m 12,9 km/h (3 Bft) 100,00 %
01.07.2022 14:32 21,9 C 22,8 C 18,9 C 58 % 1018,6 hPa 0,0 l/m 0 min 0 min 318 W/m 16,1 km/h (3 Bft) 95,74 %
01.07.2022 14:34 21,8 C 22,2 C 18,3 C 59 % 1018,7 hPa 0,0 l/m 0 min 0 min 227 W/m 16,1 km/h (3 Bft) 100,00 %
01.07.2022 14:36 21,8 C 21,7 C 18,3 C 59 % 1018,6 hPa 0,0 l/m 0 min 0 min 216 W/m 12,9 km/h (3 Bft) 97,87 %
01.07.2022 14:38 21,7 C 21,7 C 18,3 C 59 % 1018,6 hPa 0,0 l/m 0 min 0 min 227 W/m 6,4 km/h (2 Bft) 100,00 %
01.07.2022 14:40 21,6 C 21,1 C 17,8 C 59 % 1018,7 hPa 0,0 l/m 0 min 0 min 281 W/m 16,1 km/h (3 Bft) 100,00 %
01.07.2022 14:42 21,4 C 21,1 C 17,8 C 59 % 1018,6 hPa 0,0 l/m 0 min 0 min 332 W/m 9,7 km/h (2 Bft) 100,00 %
01.07.2022 14:44 21,3 C 21,7 C 18,3 C 60 % 1018,7 hPa 0,0 l/m 0 min 0 min 360 W/m 12,9 km/h (3 Bft) 100,00 %
01.07.2022 14:46 21,2 C 21,7 C 17,8 C 59 % 1018,7 hPa 0,0 l/m 2 min 0 min 446 W/m 12,9 km/h (3 Bft) 97,87 %
01.07.2022 14:48 21,3 C 22,2 C 18,3 C 60 % 1018,7 hPa 0,0 l/m 2 min 0 min 525 W/m 9,7 km/h (2 Bft) 100,00 %
01.07.2022 14:50 21,5 C 23,9 C 18,3 C 60 % 1018,7 hPa 0,0 l/m 2 min 0 min 1062 W/m 16,1 km/h (3 Bft) 100,00 %
01.07.2022 14:52 21,7 C 23,9 C 18,9 C 60 % 1018,7 hPa 0,0 l/m 2 min 0 min 839 W/m 16,1 km/h (3 Bft) 100,00 %
01.07.2022 14:54 21,9 C 24,4 C 18,3 C 61 % 1018,7 hPa 0,0 l/m 2 min 0 min 1136 W/m 16,1 km/h (3 Bft) 100,00 %
01.07.2022 14:56 22,0 C 23,3 C 18,3 C 60 % 1018,7 hPa 0,0 l/m 2 min 0 min 812 W/m 16,1 km/h (3 Bft) 100,00 %
01.07.2022 14:58 22,0 C 22,8 C 18,3 C 60 % 1018,7 hPa 0,0 l/m 0 min 0 min 258 W/m 12,9 km/h (3 Bft) 100,00 %
01.07.2022 15:00 21,9 C 22,8 C 18,3 C 60 % 1018,7 hPa 0,0 l/m 0 min 0 min 316 W/m 6,4 km/h (2 Bft) 100,00 %
01.07.2022 15:02 21,8 C 22,8 C 18,3 C 59 % 1018,7 hPa 0,0 l/m 0 min 0 min 351 W/m 6,4 km/h (2 Bft) 95,65 %
01.07.2022 15:04 21,8 C 23,9 C 18,3 C 59 % 1018,6 hPa 0,0 l/m 2 min 0 min 770 W/m 6,4 km/h (2 Bft) 100,00 %
01.07.2022 15:06 22,0 C 24,4 C 18,3 C 60 % 1018,6 hPa 0,0 l/m 2 min 0 min 1140 W/m 12,9 km/h (3 Bft) 100,00 %
01.07.2022 15:08 22,1 C 24,4 C 18,3 C 60 % 1018,6 hPa 0,0 l/m 2 min 0 min 658 W/m 16,1 km/h (3 Bft) 100,00 %
01.07.2022 15:10 22,2 C 23,9 C 18,3 C 59 % 1018,6 hPa 0,0 l/m 0 min 0 min 375 W/m 16,1 km/h (3 Bft) 100,00 %
01.07.2022 15:12 22,2 C 23,3 C 18,3 C 59 % 1018,6 hPa 0,0 l/m 2 min 0 min 448 W/m 25,7 km/h (4 Bft) 100,00 %
01.07.2022 15:14 22,2 C 23,3 C 18,3 C 59 % 1018,6 hPa 0,0 l/m 2 min 0 min 448 W/m 12,9 km/h (3 Bft) 100,00 %
01.07.2022 15:16 22,1 C 22,8 C 18,3 C 56 % 1018,7 hPa 0,0 l/m 2 min 0 min 448 W/m 32,2 km/h (5 Bft) 100,00 %
01.07.2022 15:18 21,9 C 23,3 C 18,3 C 57 % 1018,7 hPa 0,0 l/m 2 min 0 min 944 W/m 16,1 km/h (3 Bft) 100,00 %
01.07.2022 15:20 21,8 C 22,8 C 18,3 C 57 % 1018,7 hPa 0,0 l/m 2 min 0 min 524 W/m 25,7 km/h (4 Bft) 100,00 %
01.07.2022 15:22 21,8 C 22,8 C 18,3 C 58 % 1018,7 hPa 0,0 l/m 0 min 0 min 357 W/m 9,7 km/h (2 Bft) 97,87 %
01.07.2022 15:24 21,9 C 23,9 C 18,3 C 58 % 1018,7 hPa 0,0 l/m 2 min 0 min 574 W/m 12,9 km/h (3 Bft) 100,00 %
01.07.2022 15:26 22,1 C 25,0 C 18,9 C 59 % 1018,6 hPa 0,0 l/m 2 min 0 min 807 W/m 6,4 km/h (2 Bft) 95,65 %
01.07.2022 15:28 22,3 C 25,0 C 18,9 C 56 % 1018,7 hPa 0,0 l/m 2 min 0 min 805 W/m 32,2 km/h (5 Bft) 97,87 %
01.07.2022 15:30 22,5 C 25,6 C 18,9 C 56 % 1018,7 hPa 0,0 l/m 2 min 0 min 1103 W/m 16,1 km/h (3 Bft) 97,87 %
01.07.2022 15:32 22,7 C 25,6 C 18,9 C 56 % 1018,8 hPa 0,0 l/m 2 min 0 min 1048 W/m 16,1 km/h (3 Bft) 97,87 %
01.07.2022 15:34 22,8 C 25,6 C 18,9 C 56 % 1018,8 hPa 0,0 l/m 2 min 0 min 1037 W/m 16,1 km/h (3 Bft) 97,87 %
01.07.2022 15:36 23,0 C 25,6 C 18,9 C 56 % 1018,7 hPa 0,0 l/m 2 min 0 min 1023 W/m 16,1 km/h (3 Bft) 95,74 %
01.07.2022 15:38 23,1 C 25,0 C 18,9 C 56 % 1018,7 hPa 0,0 l/m 2 min 0 min 1036 W/m 16,1 km/h (3 Bft) 97,83 %
01.07.2022 15:40 23,1 C 24,4 C 18,9 C 55 % 1018,8 hPa 0,0 l/m 2 min 0 min 1053 W/m 9,7 km/h (2 Bft) 98,00 %
01.07.2022 15:42 23,1 C 25,0 C 18,9 C 56 % 1018,8 hPa 0,0 l/m 2 min 0 min 673 W/m 6,4 km/h (2 Bft) 95,74 %
01.07.2022 15:44 23,1 C 23,9 C 18,9 C 56 % 1018,8 hPa 0,0 l/m 2 min 0 min 403 W/m 16,1 km/h (3 Bft) 97,87 %
01.07.2022 15:46 23,1 C 23,9 C 18,3 C 56 % 1018,8 hPa 0,0 l/m 0 min 0 min 300 W/m 9,7 km/h (2 Bft) 97,87 %
01.07.2022 15:48 23,0 C 22,8 C 18,3 C 57 % 1018,8 hPa 0,0 l/m 0 min 0 min 298 W/m 16,1 km/h (3 Bft) 97,87 %
01.07.2022 15:50 22,8 C 22,8 C 18,3 C 56 % 1018,8 hPa 0,0 l/m 0 min 0 min 320 W/m 19,3 km/h (3 Bft) 97,83 %
01.07.2022 15:52 22,5 C 22,2 C 18,3 C 56 % 1018,9 hPa 0,0 l/m 0 min 0 min 341 W/m 16,1 km/h (3 Bft) 97,87 %
01.07.2022 15:54 22,3 C 22,2 C 18,3 C 57 % 1018,9 hPa 0,0 l/m 2 min 0 min 378 W/m 12,9 km/h (3 Bft) 97,87 %
01.07.2022 15:56 22,2 C 23,3 C 18,3 C 57 % 1018,9 hPa 0,0 l/m 2 min 0 min 561 W/m 16,1 km/h (3 Bft) 97,87 %
01.07.2022 15:58 22,3 C 24,4 C 18,3 C 58 % 1018,9 hPa 0,0 l/m 2 min 0 min 766 W/m 19,3 km/h (3 Bft) 97,87 %
01.07.2022 16:00 22,4 C 24,4 C 18,9 C 58 % 1018,9 hPa 0,0 l/m 2 min 0 min 763 W/m 16,1 km/h (3 Bft) 95,65 %
01.07.2022 16:02 22,4 C 23,9 C 18,9 C 57 % 1019,0 hPa 0,0 l/m 2 min 0 min 731 W/m 19,3 km/h (3 Bft) 100,00 %
01.07.2022 16:04 22,4 C 23,3 C 18,3 C 57 % 1019,0 hPa 0,0 l/m 0 min 0 min 301 W/m 19,3 km/h (3 Bft) 100,00 %
01.07.2022 16:06 22,3 C 23,3 C 18,3 C 58 % 1019,0 hPa 0,0 l/m 2 min 0 min 382 W/m 16,1 km/h (3 Bft) 100,00 %
01.07.2022 16:08 22,3 C 23,9 C 18,3 C 58 % 1019,1 hPa 0,0 l/m 2 min 0 min 474 W/m 12,9 km/h (3 Bft) 97,87 %
01.07.2022 16:10 22,4 C 23,3 C 18,9 C 58 % 1019,0 hPa 0,0 l/m 2 min 0 min 882 W/m 22,5 km/h (4 Bft) 100,00 %
01.07.2022 16:12 22,3 C 23,3 C 18,3 C 58 % 1019,1 hPa 0,0 l/m 0 min 0 min 331 W/m 12,9 km/h (3 Bft) 100,00 %
01.07.2022 16:14 22,3 C 22,8 C 18,3 C 58 % 1019,2 hPa 0,0 l/m 0 min 0 min 316 W/m 9,7 km/h (2 Bft) 100,00 %
01.07.2022 16:16 22,3 C 22,8 C 18,3 C 58 % 1019,1 hPa 0,0 l/m 0 min 0 min 334 W/m 16,1 km/h (3 Bft) 95,74 %
01.07.2022 16:18 22,1 C 22,8 C 18,3 C 57 % 1019,2 hPa 0,0 l/m 2 min 0 min 429 W/m 19,3 km/h (3 Bft) 97,87 %
01.07.2022 16:20 22,1 C 23,3 C 18,3 C 58 % 1019,1 hPa 0,0 l/m 2 min 0 min 564 W/m 9,7 km/h (2 Bft) 93,62 %
01.07.2022 16:22 22,1 C 24,4 C 18,9 C 59 % 1019,2 hPa 0,0 l/m 2 min 0 min 572 W/m 9,7 km/h (2 Bft) 97,87 %
01.07.2022 16:24 22,3 C 26,1 C 18,9 C 58 % 1019,2 hPa 0,0 l/m 2 min 0 min 577 W/m 12,9 km/h (3 Bft) 95,65 %
01.07.2022 16:26 22,4 C 26,7 C 18,9 C 58 % 1019,2 hPa 0,0 l/m 2 min 0 min 892 W/m 12,9 km/h (3 Bft) 95,92 %
01.07.2022 16:28 22,6 C 27,2 C 18,9 C 58 % 1019,2 hPa 0,0 l/m 2 min 0 min 894 W/m 6,4 km/h (2 Bft) 97,87 %
01.07.2022 16:30 22,8 C 27,8 C 19,4 C 56 % 1019,2 hPa 0,0 l/m 2 min 0 min 861 W/m 19,3 km/h (3 Bft) 95,74 %
01.07.2022 16:32 22,9 C 27,8 C 18,9 C 56 % 1019,2 hPa 0,0 l/m 2 min 0 min 854 W/m 16,1 km/h (3 Bft) 95,83 %
01.07.2022 16:34 22,9 C 27,2 C 18,9 C 55 % 1019,2 hPa 0,0 l/m 2 min 0 min 818 W/m 25,7 km/h (4 Bft) 95,74 %
01.07.2022 16:36 22,9 C 27,2 C 18,9 C 54 % 1019,1 hPa 0,0 l/m 2 min 0 min 808 W/m 35,4 km/h (5 Bft) 93,48 %
01.07.2022 16:38 22,9 C 26,7 C 18,9 C 56 % 1019,1 hPa 0,0 l/m 2 min 0 min 825 W/m 12,9 km/h (3 Bft) 95,74 %
01.07.2022 16:40 22,9 C 27,2 C 18,9 C 56 % 1019,0 hPa 0,0 l/m 2 min 0 min 831 W/m 6,4 km/h (2 Bft) 95,74 %
01.07.2022 16:42 23,1 C 28,3 C 18,9 C 57 % 1019,0 hPa 0,0 l/m 2 min 0 min 856 W/m 9,7 km/h (2 Bft) 95,74 %
01.07.2022 16:44 23,1 C 28,3 C 18,9 C 57 % 1019,1 hPa 0,0 l/m 2 min 0 min 848 W/m 12,9 km/h (3 Bft) 93,62 %
01.07.2022 16:46 23,2 C 27,8 C 18,9 C 56 % 1019,0 hPa 0,0 l/m 2 min 0 min 806 W/m 12,9 km/h (3 Bft) 95,65 %
01.07.2022 16:48 23,2 C 27,2 C 18,9 C 55 % 1019,1 hPa 0,0 l/m 2 min 0 min 776 W/m 12,9 km/h (3 Bft) 93,62 %
01.07.2022 16:50 23,1 C 27,2 C 18,9 C 55 % 1019,1 hPa 0,0 l/m 2 min 0 min 774 W/m 12,9 km/h (3 Bft) 95,74 %
01.07.2022 16:52 23,2 C 28,3 C 18,9 C 57 % 1019,1 hPa 0,0 l/m 2 min 0 min 780 W/m 6,4 km/h (2 Bft) 93,62 %
01.07.2022 16:54 23,3 C 28,3 C 18,9 C 56 % 1019,1 hPa 0,0 l/m 2 min 0 min 796 W/m 12,9 km/h (3 Bft) 95,74 %
01.07.2022 16:56 23,3 C 27,8 C 18,9 C 56 % 1019,1 hPa 0,0 l/m 2 min 0 min 821 W/m 16,1 km/h (3 Bft) 95,74 %
01.07.2022 16:58 23,3 C 27,2 C 18,9 C 55 % 1019,1 hPa 0,0 l/m 2 min 0 min 831 W/m 12,9 km/h (3 Bft) 97,83 %
01.07.2022 17:00 23,2 C 27,2 C 18,9 C 55 % 1019,1 hPa 0,0 l/m 2 min 0 min 831 W/m 6,4 km/h (2 Bft) 95,74 %
01.07.2022 17:02 23,2 C 27,2 C 18,9 C 55 % 1019,1 hPa 0,0 l/m 2 min 0 min 824 W/m 12,9 km/h (3 Bft) 95,74 %
01.07.2022 17:04 23,3 C 26,1 C 18,9 C 55 % 1019,0 hPa 0,0 l/m 2 min 0 min 783 W/m 12,9 km/h (3 Bft) 97,87 %
01.07.2022 17:06 23,2 C 25,0 C 18,9 C 55 % 1019,1 hPa 0,0 l/m 0 min 0 min 248 W/m 12,9 km/h (3 Bft) 97,87 %
01.07.2022 17:08 23,2 C 23,9 C 18,9 C 56 % 1019,1 hPa 0,0 l/m 0 min 0 min 200 W/m 16,1 km/h (3 Bft) 97,87 %
01.07.2022 17:10 23,0 C 23,3 C 18,3 C 56 % 1019,1 hPa 0,0 l/m 0 min 0 min 176 W/m 12,9 km/h (3 Bft) 95,65 %
01.07.2022 17:12 22,9 C 22,8 C 18,3 C 56 % 1019,1 hPa 0,0 l/m 0 min 0 min 182 W/m 12,9 km/h (3 Bft) 97,87 %
01.07.2022 17:14 22,8 C 22,8 C 18,3 C 56 % 1019,1 hPa 0,0 l/m 0 min 0 min 190 W/m 16,1 km/h (3 Bft) 97,87 %
01.07.2022 17:16 22,6 C 23,9 C 18,3 C 56 % 1019,1 hPa 0,0 l/m 2 min 0 min 408 W/m 6,4 km/h (2 Bft) 95,74 %
01.07.2022 17:18 22,7 C 26,1 C 18,9 C 57 % 1019,1 hPa 0,0 l/m 2 min 0 min 812 W/m 12,9 km/h (3 Bft) 97,87 %
01.07.2022 17:20 22,8 C 27,2 C 18,9 C 56 % 1019,1 hPa 0,0 l/m 2 min 0 min 777 W/m 19,3 km/h (3 Bft) 97,87 %
01.07.2022 17:22 22,8 C 27,2 C 18,9 C 55 % 1019,2 hPa 0,0 l/m 2 min 0 min 728 W/m 22,5 km/h (4 Bft) 95,65 %
01.07.2022 17:24 22,8 C 27,2 C 18,9 C 55 % 1019,1 hPa 0,0 l/m 2 min 0 min 694 W/m 19,3 km/h (3 Bft) 100,00 %
01.07.2022 17:26 22,8 C 27,2 C 18,9 C 55 % 1019,2 hPa 0,0 l/m 2 min 0 min 687 W/m 16,1 km/h (3 Bft) 97,87 %
01.07.2022 17:28 23,0 C 27,2 C 18,9 C 57 % 1019,1 hPa 0,0 l/m 2 min 0 min 694 W/m 12,9 km/h (3 Bft) 100,00 %
01.07.2022 17:30 23,1 C 27,2 C 18,9 C 57 % 1019,1 hPa 0,0 l/m 2 min 0 min 695 W/m 12,9 km/h (3 Bft) 97,87 %
01.07.2022 17:32 23,2 C 27,2 C 18,9 C 55 % 1019,1 hPa 0,0 l/m 2 min 0 min 682 W/m 9,7 km/h (2 Bft) 97,87 %
01.07.2022 17:34 23,2 C 27,2 C 18,9 C 55 % 1019,2 hPa 0,0 l/m 2 min 0 min 684 W/m 12,9 km/h (3 Bft) 97,83 %
01.07.2022 17:36 23,2 C 25,6 C 18,9 C 55 % 1019,2 hPa 0,0 l/m 2 min 0 min 370 W/m 12,9 km/h (3 Bft) 97,87 %
01.07.2022 17:38 23,2 C 23,9 C 18,9 C 54 % 1019,3 hPa 0,0 l/m 0 min 0 min 98 W/m 9,7 km/h (2 Bft) 97,87 %
01.07.2022 17:40 23,1 C 25,0 C 18,3 C 55 % 1019,2 hPa 0,0 l/m 2 min 0 min 326 W/m 16,1 km/h (3 Bft) 97,87 %
01.07.2022 17:42 23,1 C 26,1 C 18,9 C 56 % 1019,2 hPa 0,0 l/m 2 min 0 min 697 W/m 16,1 km/h (3 Bft) 97,87 %
01.07.2022 17:44 23,1 C 26,7 C 18,9 C 55 % 1019,2 hPa 0,0 l/m 2 min 0 min 701 W/m 12,9 km/h (3 Bft) 97,87 %
01.07.2022 17:46 23,1 C 27,2 C 18,9 C 54 % 1019,2 hPa 0,0 l/m 2 min 0 min 676 W/m 12,9 km/h (3 Bft) 97,87 %
01.07.2022 17:48 23,1 C 27,2 C 18,9 C 55 % 1019,1 hPa 0,0 l/m 2 min 0 min 652 W/m 19,3 km/h (3 Bft) 97,83 %
01.07.2022 17:50 23,2 C 27,8 C 19,4 C 54 % 1019,2 hPa 0,0 l/m 2 min 0 min 637 W/m 12,9 km/h (3 Bft) 97,87 %
01.07.2022 17:52 23,2 C 27,8 C 19,4 C 55 % 1019,2 hPa 0,0 l/m 2 min 0 min 633 W/m 12,9 km/h (3 Bft) 95,74 %
01.07.2022 17:54 23,3 C 27,8 C 18,9 C 54 % 1019,2 hPa 0,0 l/m 2 min 0 min 593 W/m 12,9 km/h (3 Bft) 95,74 %
01.07.2022 17:56 23,3 C 27,8 C 18,9 C 55 % 1019,2 hPa 0,0 l/m 2 min 0 min 617 W/m 12,9 km/h (3 Bft) 97,87 %
01.07.2022 17:58 23,3 C 27,8 C 19,4 C 55 % 1019,2 hPa 0,0 l/m 2 min 0 min 602 W/m 16,1 km/h (3 Bft) 97,83 %
01.07.2022 18:00 23,3 C 27,8 C 18,9 C 54 % 1019,3 hPa 0,0 l/m 2 min 0 min 591 W/m 12,9 km/h (3 Bft) 97,92 %
01.07.2022 18:02 23,2 C 27,8 C 18,9 C 55 % 1019,3 hPa 0,0 l/m 2 min 0 min 584 W/m 12,9 km/h (3 Bft) 97,83 %
01.07.2022 18:04 23,2 C 27,8 C 19,4 C 54 % 1019,3 hPa 0,0 l/m 2 min 0 min 575 W/m 12,9 km/h (3 Bft) 97,87 %
01.07.2022 18:07 23,2 C 27,2 C 19,4 C 54 % 1019,3 hPa 0,0 l/m 3 min 0 min 563 W/m 16,1 km/h (3 Bft) 100,00 %
01.07.2022 18:08 23,2 C 27,2 C 19,4 C 55 % 1019,3 hPa 0,0 l/m 1 min 0 min 551 W/m 12,9 km/h (3 Bft) 100,00 %
01.07.2022 18:10 23,2 C 27,2 C 18,9 C 54 % 1019,3 hPa 0,0 l/m 2 min 0 min 553 W/m 12,9 km/h (3 Bft) 100,00 %
01.07.2022 18:12 23,2 C 26,7 C 18,9 C 53 % 1019,3 hPa 0,0 l/m 2 min 0 min 548 W/m 12,9 km/h (3 Bft) 100,00 %
01.07.2022 18:14 23,2 C 27,2 C 18,9 C 53 % 1019,3 hPa 0,0 l/m 2 min 0 min 542 W/m 12,9 km/h (3 Bft) 100,00 %
01.07.2022 18:16 23,2 C 27,2 C 18,9 C 54 % 1019,3 hPa 0,0 l/m 2 min 0 min 530 W/m 12,9 km/h (3 Bft) 100,00 %
01.07.2022 18:18 23,2 C 27,2 C 18,9 C 54 % 1019,3 hPa 0,0 l/m 2 min 0 min 527 W/m 12,9 km/h (3 Bft) 97,87 %
01.07.2022 18:20 23,3 C 27,2 C 18,9 C 53 % 1019,2 hPa 0,0 l/m 2 min 0 min 520 W/m 6,4 km/h (2 Bft) 100,00 %
01.07.2022 18:22 23,4 C 27,8 C 19,4 C 53 % 1019,3 hPa 0,0 l/m 2 min 0 min 510 W/m 19,3 km/h (3 Bft) 95,74 %
01.07.2022 18:24 23,3 C 27,8 C 19,4 C 51 % 1019,3 hPa 0,0 l/m 2 min 0 min 501 W/m 12,9 km/h (3 Bft) 100,00 %
01.07.2022 18:26 23,3 C 27,8 C 19,4 C 51 % 1019,3 hPa 0,0 l/m 2 min 0 min 499 W/m 9,7 km/h (2 Bft) 100,00 %
01.07.2022 18:28 23,3 C 28,3 C 19,4 C 52 % 1019,3 hPa 0,0 l/m 2 min 0 min 499 W/m 12,9 km/h (3 Bft) 100,00 %
01.07.2022 18:30 23,4 C 28,3 C 19,4 C 53 % 1019,3 hPa 0,0 l/m 2 min 0 min 498 W/m 12,9 km/h (3 Bft) 100,00 %
01.07.2022 18:32 23,3 C 27,8 C 19,4 C 52 % 1019,4 hPa 0,0 l/m 2 min 0 min 495 W/m 16,1 km/h (3 Bft) 100,00 %
01.07.2022 18:34 23,2 C 27,2 C 19,4 C 52 % 1019,3 hPa 0,0 l/m 2 min 0 min 486 W/m 12,9 km/h (3 Bft) 100,00 %
01.07.2022 18:36 23,2 C 27,8 C 19,4 C 53 % 1019,3 hPa 0,0 l/m 2 min 0 min 474 W/m 16,1 km/h (3 Bft) 100,00 %
01.07.2022 18:38 23,2 C 27,2 C 19,4 C 53 % 1019,3 hPa 0,0 l/m 2 min 0 min 464 W/m 12,9 km/h (3 Bft) 97,87 %
01.07.2022 18:40 23,2 C 27,2 C 18,9 C 53 % 1019,3 hPa 0,0 l/m 2 min 0 min 454 W/m 16,1 km/h (3 Bft) 100,00 %
01.07.2022 18:42 23,2 C 26,7 C 18,9 C 53 % 1019,4 hPa 0,0 l/m 2 min 0 min 446 W/m 16,1 km/h (3 Bft) 100,00 %
01.07.2022 18:44 23,1 C 26,7 C 18,9 C 52 % 1019,3 hPa 0,0 l/m 2 min 0 min 441 W/m 12,9 km/h (3 Bft) 95,74 %
01.07.2022 18:46 23,1 C 26,7 C 18,9 C 53 % 1019,4 hPa 0,0 l/m 2 min 0 min 435 W/m 16,1 km/h (3 Bft) 97,83 %
01.07.2022 18:48 23,0 C 26,7 C 18,9 C 53 % 1019,4 hPa 0,0 l/m 2 min 0 min 430 W/m 19,3 km/h (3 Bft) 97,87 %
01.07.2022 18:50 22,9 C 26,7 C 18,9 C 53 % 1019,4 hPa 0,0 l/m 2 min 0 min 420 W/m 16,1 km/h (3 Bft) 97,87 %
01.07.2022 18:52 23,0 C 26,7 C 18,9 C 54 % 1019,5 hPa 0,0 l/m 2 min 0 min 422 W/m 12,9 km/h (3 Bft) 97,87 %
01.07.2022 18:54 23,0 C 26,1 C 18,9 C 53 % 1019,5 hPa 0,0 l/m 2 min 0 min 417 W/m 16,1 km/h (3 Bft) 97,87 %
01.07.2022 18:56 23,0 C 26,1 C 18,9 C 53 % 1019,5 hPa 0,0 l/m 2 min 0 min 412 W/m 12,9 km/h (3 Bft) 97,87 %
01.07.2022 18:58 22,9 C 25,6 C 18,9 C 54 % 1019,5 hPa 0,0 l/m 2 min 0 min 406 W/m 19,3 km/h (3 Bft) 95,65 %
01.07.2022 19:00 22,9 C 26,1 C 18,9 C 54 % 1019,4 hPa 0,0 l/m 2 min 0 min 399 W/m 12,9 km/h (3 Bft) 97,87 %
01.07.2022 19:02 22,8 C 23,9 C 18,9 C 53 % 1019,5 hPa 0,0 l/m 2 min 0 min 264 W/m 29,0 km/h (5 Bft) 97,87 %
01.07.2022 19:04 22,7 C 22,8 C 18,3 C 53 % 1019,5 hPa 0,0 l/m 0 min 0 min 61 W/m 22,5 km/h (4 Bft) 97,87 %
01.07.2022 19:06 22,5 C 22,8 C 18,3 C 54 % 1019,6 hPa 0,0 l/m 0 min 0 min 72 W/m 9,7 km/h (2 Bft) 97,87 %
01.07.2022 19:08 22,4 C 23,9 C 18,3 C 54 % 1019,5 hPa 0,0 l/m 2 min 0 min 312 W/m 12,9 km/h (3 Bft) 95,74 %
01.07.2022 19:10 22,4 C 23,9 C 18,3 C 54 % 1019,5 hPa 0,0 l/m 2 min 0 min 365 W/m 16,1 km/h (3 Bft) 97,83 %
01.07.2022 19:12 22,3 C 22,8 C 18,3 C 55 % 1019,5 hPa 0,0 l/m 2 min 0 min 272 W/m 9,7 km/h (2 Bft) 97,87 %
01.07.2022 19:14 22,2 C 21,7 C 17,8 C 55 % 1019,5 hPa 0,0 l/m 0 min 0 min 53 W/m 12,9 km/h (3 Bft) 95,74 %
01.07.2022 19:16 22,1 C 21,7 C 17,8 C 56 % 1019,5 hPa 0,0 l/m 0 min 0 min 103 W/m 12,9 km/h (3 Bft) 97,87 %
01.07.2022 19:18 22,1 C 21,7 C 17,8 C 55 % 1019,6 hPa 0,0 l/m 2 min 0 min 341 W/m 12,9 km/h (3 Bft) 97,87 %
01.07.2022 19:20 22,1 C 21,7 C 17,8 C 56 % 1019,5 hPa 0,0 l/m 2 min 0 min 333 W/m 12,9 km/h (3 Bft) 97,87 %
01.07.2022 19:22 22,0 C 21,7 C 17,8 C 55 % 1019,6 hPa 0,0 l/m 2 min 0 min 172 W/m 6,4 km/h (2 Bft) 97,87 %
01.07.2022 19:24 21,9 C 21,7 C 17,8 C 56 % 1019,5 hPa 0,0 l/m 0 min 0 min 53 W/m 6,4 km/h (2 Bft) 97,83 %
01.07.2022 19:26 21,9 C 21,1 C 17,2 C 55 % 1019,6 hPa 0,0 l/m 0 min 0 min 57 W/m 12,9 km/h (3 Bft) 97,87 %
01.07.2022 19:28 21,7 C 21,1 C 17,2 C 56 % 1019,6 hPa 0,0 l/m 0 min 0 min 72 W/m 12,9 km/h (3 Bft) 95,74 %
01.07.2022 19:30 21,7 C 21,1 C 17,2 C 56 % 1019,7 hPa 0,0 l/m 0 min 0 min 120 W/m 6,4 km/h (2 Bft) 100,00 %
01.07.2022 19:32 21,6 C 21,1 C 17,2 C 57 % 1019,7 hPa 0,0 l/m 2 min 0 min 278 W/m 6,4 km/h (2 Bft) 93,62 %
01.07.2022 19:34 21,7 C 21,1 C 17,2 C 57 % 1019,7 hPa 0,0 l/m 2 min 0 min 282 W/m 6,4 km/h (2 Bft) 97,87 %
01.07.2022 19:36 21,7 C 21,7 C 17,2 C 58 % 1019,7 hPa 0,0 l/m 2 min 0 min 272 W/m 3,2 km/h (1 Bft) 95,65 %
01.07.2022 19:38 21,7 C 21,7 C 17,2 C 58 % 1019,6 hPa 0,0 l/m 2 min 0 min 263 W/m 9,7 km/h (2 Bft) 97,87 %
01.07.2022 19:40 21,8 C 21,7 C 17,2 C 56 % 1019,7 hPa 0,0 l/m 2 min 0 min 259 W/m 12,9 km/h (3 Bft) 95,74 %
01.07.2022 19:42 21,8 C 21,7 C 17,8 C 57 % 1019,6 hPa 0,0 l/m 2 min 0 min 255 W/m 16,1 km/h (3 Bft) 93,62 %
01.07.2022 19:44 21,8 C 21,7 C 17,2 C 57 % 1019,7 hPa 0,0 l/m 2 min 0 min 245 W/m 9,7 km/h (2 Bft) 95,74 %
01.07.2022 19:46 21,9 C 21,7 C 17,8 C 57 % 1019,7 hPa 0,0 l/m 2 min 0 min 238 W/m 16,1 km/h (3 Bft) 97,83 %
01.07.2022 19:48 21,8 C 21,1 C 17,2 C 56 % 1019,7 hPa 0,0 l/m 2 min 0 min 232 W/m 12,9 km/h (3 Bft) 95,74 %
01.07.2022 19:50 21,9 C 21,1 C 17,8 C 56 % 1019,7 hPa 0,0 l/m 2 min 0 min 222 W/m 12,9 km/h (3 Bft) 95,74 %
01.07.2022 19:52 21,9 C 21,1 C 17,2 C 57 % 1019,7 hPa 0,0 l/m 2 min 0 min 211 W/m 6,4 km/h (2 Bft) 95,74 %
01.07.2022 19:54 21,9 C 21,1 C 17,2 C 57 % 1019,7 hPa 0,0 l/m 2 min 0 min 200 W/m 6,4 km/h (2 Bft) 94,55 %
01.07.2022 19:56 21,9 C 21,1 C 17,2 C 57 % 1019,7 hPa 0,0 l/m 2 min 0 min 201 W/m 9,7 km/h (2 Bft) 95,65 %
01.07.2022 19:58 21,9 C 21,1 C 17,2 C 57 % 1019,7 hPa 0,0 l/m 2 min 0 min 195 W/m 9,7 km/h (2 Bft) 93,62 %
01.07.2022 20:00 21,8 C 21,1 C 17,2 C 57 % 1019,8 hPa 0,0 l/m 2 min 0 min 185 W/m 6,4 km/h (2 Bft) 93,62 %
01.07.2022 20:02 21,8 C 20,6 C 17,2 C 57 % 1019,8 hPa 0,0 l/m 0 min 0 min 114 W/m 9,7 km/h (2 Bft) 93,62 %
01.07.2022 20:04 21,7 C 20,6 C 17,2 C 57 % 1019,8 hPa 0,0 l/m 0 min 0 min 62 W/m 12,9 km/h (3 Bft) 95,74 %
01.07.2022 20:06 21,7 C 21,1 C 17,2 C 57 % 1019,8 hPa 0,0 l/m 0 min 0 min 46 W/m 6,4 km/h (2 Bft) 95,74 %
01.07.2022 20:08 21,6 C 20,6 C 17,2 C 57 % 1019,8 hPa 0,0 l/m 0 min 0 min 44 W/m 9,7 km/h (2 Bft) 93,62 %
01.07.2022 20:10 21,6 C 20,6 C 17,2 C 58 % 1019,7 hPa 0,0 l/m 0 min 0 min 43 W/m 6,4 km/h (2 Bft) 93,48 %
01.07.2022 20:12 21,6 C 20,6 C 17,2 C 58 % 1019,8 hPa 0,0 l/m 0 min 0 min 42 W/m 9,7 km/h (2 Bft) 97,87 %
01.07.2022 20:14 21,6 C 20,6 C 17,2 C 58 % 1019,8 hPa 0,0 l/m 0 min 0 min 40 W/m 6,4 km/h (2 Bft) 97,87 %
01.07.2022 20:16 21,6 C 20,6 C 17,2 C 59 % 1019,7 hPa 0,0 l/m 0 min 0 min 36 W/m 6,4 km/h (2 Bft) 95,74 %
01.07.2022 20:18 21,4 C 20,6 C 16,7 C 58 % 1019,8 hPa 0,0 l/m 0 min 0 min 32 W/m 6,4 km/h (2 Bft) 97,87 %
01.07.2022 20:20 21,4 C 20,6 C 16,7 C 58 % 1019,8 hPa 0,0 l/m 0 min 0 min 39 W/m 6,4 km/h (2 Bft) 97,14 %
01.07.2022 20:22 21,3 C 20,6 C 16,7 C 57 % 1019,9 hPa 0,0 l/m 0 min 0 min 39 W/m 12,9 km/h (3 Bft) 98,28 %
01.07.2022 20:24 21,3 C 20,6 C 16,7 C 57 % 1019,9 hPa 0,0 l/m 0 min 0 min 37 W/m 6,4 km/h (2 Bft) 97,87 %
01.07.2022 20:26 21,2 C 20,6 C 16,7 C 57 % 1019,9 hPa 0,0 l/m 0 min 0 min 37 W/m 3,2 km/h (1 Bft) 97,87 %
01.07.2022 20:28 21,2 C 20,0 C 16,7 C 57 % 1019,9 hPa 0,0 l/m 0 min 0 min 34 W/m 12,9 km/h (3 Bft) 97,14 %
01.07.2022 20:30 21,2 C 20,0 C 16,7 C 58 % 1019,9 hPa 0,0 l/m 0 min 0 min 29 W/m 6,4 km/h (2 Bft) 98,31 %
01.07.2022 20:32 21,2 C 20,0 C 16,7 C 58 % 1019,9 hPa 0,0 l/m 0 min 0 min 32 W/m 6,4 km/h (2 Bft) 95,65 %
01.07.2022 20:34 21,1 C 20,0 C 16,7 C 59 % 1019,9 hPa 0,0 l/m 0 min 0 min 35 W/m 19,3 km/h (3 Bft) 100,00 %
01.07.2022 20:36 21,1 C 20,0 C 16,7 C 60 % 1020,0 hPa 0,0 l/m 0 min 0 min 36 W/m 12,9 km/h (3 Bft) 98,28 %
01.07.2022 20:38 21,1 C 20,0 C 16,7 C 60 % 1020,0 hPa 0,0 l/m 0 min 0 min 37 W/m 6,4 km/h (2 Bft) 97,87 %
01.07.2022 20:40 20,9 C 20,0 C 16,1 C 61 % 1020,0 hPa 0,0 l/m 0 min 0 min 36 W/m 3,2 km/h (1 Bft) 100,00 %
01.07.2022 20:42 20,8 C 19,4 C 16,1 C 62 % 1020,1 hPa 0,0 l/m 0 min 0 min 35 W/m 3,2 km/h (1 Bft) 100,00 %
01.07.2022 20:44 20,7 C 19,4 C 16,1 C 63 % 1020,1 hPa 0,0 l/m 0 min 0 min 37 W/m 9,7 km/h (2 Bft) 100,00 %
01.07.2022 20:46 20,7 C 19,4 C 16,1 C 63 % 1020,2 hPa 0,0 l/m 0 min 0 min 39 W/m 6,4 km/h (2 Bft) 97,87 %
01.07.2022 20:48 20,5 C 19,4 C 15,6 C 64 % 1020,2 hPa 0,0 l/m 0 min 0 min 35 W/m 9,7 km/h (2 Bft) 100,00 %
01.07.2022 20:50 20,4 C 18,9 C 15,6 C 64 % 1020,2 hPa 0,0 l/m 0 min 0 min 32 W/m 12,9 km/h (3 Bft) 100,00 %
01.07.2022 20:52 20,3 C 18,9 C 15,6 C 64 % 1020,3 hPa 0,0 l/m 0 min 0 min 31 W/m 9,7 km/h (2 Bft) 97,87 %
01.07.2022 20:54 20,3 C 18,9 C 15,6 C 65 % 1020,3 hPa 0,0 l/m 0 min 0 min 30 W/m 3,2 km/h (1 Bft) 100,00 %
01.07.2022 20:56 20,2 C 18,9 C 15,6 C 66 % 1020,3 hPa 0,0 l/m 0 min 0 min 28 W/m 3,2 km/h (1 Bft) 100,00 %
01.07.2022 20:58 20,1 C 18,9 C 15,6 C 66 % 1020,3 hPa 0,0 l/m 0 min 0 min 26 W/m 6,4 km/h (2 Bft) 100,00 %
01.07.2022 21:00 20,1 C 18,9 C 15,6 C 66 % 1020,3 hPa 0,0 l/m 0 min 0 min 25 W/m 6,4 km/h (2 Bft) 100,00 %
01.07.2022 21:02 20,0 C 18,9 C 15,6 C 66 % 1020,3 hPa 0,0 l/m 0 min 0 min 23 W/m 6,4 km/h (2 Bft) 100,00 %
01.07.2022 21:04 19,9 C 18,9 C 15,0 C 67 % 1020,3 hPa 0,0 l/m 0 min 0 min 21 W/m 0,0 km/h (0 Bft) 100,00 %
01.07.2022 21:06 19,9 C 18,9 C 15,0 C 68 % 1020,3 hPa 0,0 l/m 0 min 0 min 20 W/m 0,0 km/h (0 Bft) 100,00 %
01.07.2022 21:08 19,8 C 18,3 C 15,0 C 68 % 1020,4 hPa 0,0 l/m 0 min 0 min 19 W/m 3,2 km/h (1 Bft) 100,00 %
01.07.2022 21:10 19,8 C 18,3 C 15,0 C 68 % 1020,4 hPa 0,0 l/m 0 min 0 min 19 W/m 3,2 km/h (1 Bft) 100,00 %
01.07.2022 21:12 19,7 C 18,3 C 15,0 C 68 % 1020,4 hPa 0,0 l/m 0 min 0 min 18 W/m 6,4 km/h (2 Bft) 100,00 %
01.07.2022 21:14 19,6 C 18,3 C 15,0 C 69 % 1020,4 hPa 0,0 l/m 0 min 0 min 18 W/m 3,2 km/h (1 Bft) 100,00 %
01.07.2022 21:16 19,6 C 18,3 C 15,0 C 69 % 1020,4 hPa 0,0 l/m 0 min 0 min 17 W/m 0,0 km/h (0 Bft) 100,00 %
01.07.2022 21:18 19,5 C 18,3 C 15,0 C 69 % 1020,4 hPa 0,0 l/m 0 min 0 min 16 W/m 3,2 km/h (1 Bft) 100,00 %
01.07.2022 21:20 19,4 C 18,3 C 15,0 C 69 % 1020,5 hPa 0,0 l/m 0 min 0 min 15 W/m 3,2 km/h (1 Bft) 95,74 %
01.07.2022 21:22 19,4 C 18,3 C 15,0 C 70 % 1020,5 hPa 0,0 l/m 0 min 0 min 14 W/m 3,2 km/h (1 Bft) 97,83 %
01.07.2022 21:24 19,3 C 18,3 C 15,0 C 70 % 1020,6 hPa 0,0 l/m 0 min 0 min 14 W/m 3,2 km/h (1 Bft) 97,87 %
01.07.2022 21:26 19,3 C 17,8 C 14,4 C 70 % 1020,5 hPa 0,0 l/m 0 min 0 min 12 W/m 6,4 km/h (2 Bft) 97,87 %
01.07.2022 21:28 19,3 C 17,8 C 14,4 C 71 % 1020,5 hPa 0,0 l/m 0 min 0 min 12 W/m 3,2 km/h (1 Bft) 97,87 %
01.07.2022 21:30 19,2 C 17,8 C 14,4 C 71 % 1020,6 hPa 0,0 l/m 0 min 0 min 12 W/m 0,0 km/h (0 Bft) 93,62 %
01.07.2022 21:32 19,2 C 17,8 C 14,4 C 71 % 1020,6 hPa 0,0 l/m 0 min 0 min 11 W/m 0,0 km/h (0 Bft) 95,74 %
01.07.2022 21:34 19,2 C 17,8 C 14,4 C 72 % 1020,6 hPa 0,0 l/m 0 min 0 min 11 W/m 0,0 km/h (0 Bft) 95,65 %
01.07.2022 21:36 19,1 C 17,8 C 14,4 C 72 % 1020,6 hPa 0,0 l/m 0 min 0 min 9 W/m 3,2 km/h (1 Bft) 95,74 %
01.07.2022 21:38 19,1 C 17,8 C 14,4 C 72 % 1020,7 hPa 0,0 l/m 0 min 0 min 9 W/m 3,2 km/h (1 Bft) 93,62 %
01.07.2022 21:40 19,1 C 17,8 C 14,4 C 72 % 1020,7 hPa 0,0 l/m 0 min 0 min 8 W/m 0,0 km/h (0 Bft) 95,74 %
01.07.2022 21:42 18,9 C 17,2 C 14,4 C 72 % 1020,7 hPa 0,0 l/m 0 min 0 min 7 W/m 3,2 km/h (1 Bft) 95,74 %
01.07.2022 21:44 18,9 C 17,2 C 13,9 C 72 % 1020,8 hPa 0,0 l/m 0 min 0 min 7 W/m 0,0 km/h (0 Bft) 93,62 %
01.07.2022 21:46 18,8 C 17,2 C 13,9 C 73 % 1020,8 hPa 0,0 l/m 0 min 0 min 6 W/m 0,0 km/h (0 Bft) 95,65 %
01.07.2022 21:48 18,8 C 17,2 C 13,9 C 73 % 1020,8 hPa 0,0 l/m 0 min 0 min 5 W/m 0,0 km/h (0 Bft) 93,62 %
01.07.2022 21:50 18,8 C 17,2 C 13,9 C 73 % 1020,8 hPa 0,0 l/m 0 min 0 min 5 W/m 0,0 km/h (0 Bft) 93,62 %
01.07.2022 21:52 18,8 C 17,2 C 13,9 C 74 % 1020,8 hPa 0,0 l/m 0 min 0 min 5 W/m 0,0 km/h (0 Bft) 95,74 %
01.07.2022 21:54 18,8 C 16,7 C 13,9 C 74 % 1020,9 hPa 0,0 l/m 0 min 0 min 2 W/m 0,0 km/h (0 Bft) 95,74 %
01.07.2022 21:56 18,7 C 16,7 C 13,3 C 75 % 1021,0 hPa 0,0 l/m 0 min 0 min 0 W/m 0,0 km/h (0 Bft) 95,74 %
01.07.2022 21:58 18,7 C 16,7 C 13,3 C 76 % 1021,0 hPa 0,0 l/m 0 min 0 min 0 W/m 0,0 km/h (0 Bft) 95,65 %
01.07.2022 22:00 18,6 C 16,7 C 13,3 C 76 % 1021,0 hPa 0,0 l/m 0 min 0 min 0 W/m 0,0 km/h (0 Bft) 97,83 %
01.07.2022 22:02 18,6 C 16,7 C 13,3 C 76 % 1021,0 hPa 0,0 l/m 0 min 0 min 0 W/m 0,0 km/h (0 Bft) 93,62 %
01.07.2022 22:04 18,5 C 16,7 C 13,3 C 76 % 1021,1 hPa 0,0 l/m 0 min 0 min 0 W/m 0,0 km/h (0 Bft) 95,74 %
01.07.2022 22:06 18,4 C 16,7 C 13,3 C 76 % 1021,1 hPa 0,0 l/m 0 min 0 min 0 W/m 0,0 km/h (0 Bft) 97,87 %
01.07.2022 22:08 18,4 C 16,7 C 13,3 C 77 % 1021,1 hPa 0,0 l/m 0 min 0 min 0 W/m 0,0 km/h (0 Bft) 95,74 %
01.07.2022 22:10 18,3 C 16,1 C 13,3 C 77 % 1021,2 hPa 0,0 l/m 0 min 0 min 0 W/m 0,0 km/h (0 Bft) 97,83 %
01.07.2022 22:12 18,2 C 16,1 C 12,8 C 78 % 1021,2 hPa 0,0 l/m 0 min 0 min 0 W/m 0,0 km/h (0 Bft) 100,00 %
01.07.2022 22:14 18,2 C 16,1 C 12,8 C 78 % 1021,3 hPa 0,0 l/m 0 min 0 min 0 W/m 0,0 km/h (0 Bft) 97,87 %
01.07.2022 22:16 18,1 C 16,1 C 12,8 C 78 % 1021,3 hPa 0,0 l/m 0 min 0 min 0 W/m 0,0 km/h (0 Bft) 97,87 %
01.07.2022 22:18 18,1 C 16,1 C 12,8 C 78 % 1021,3 hPa 0,0 l/m 0 min 0 min 0 W/m 0,0 km/h (0 Bft) 97,87 %
01.07.2022 22:20 18,0 C 16,1 C 12,8 C 79 % 1021,3 hPa 0,0 l/m 0 min 0 min 0 W/m 0,0 km/h (0 Bft) 100,00 %
01.07.2022 22:22 17,9 C 16,1 C 12,8 C 79 % 1021,3 hPa 0,0 l/m 0 min 0 min 0 W/m 0,0 km/h (0 Bft) 100,00 %
01.07.2022 22:24 17,8 C 15,6 C 12,8 C 79 % 1021,4 hPa 0,0 l/m 0 min 0 min 0 W/m 0,0 km/h (0 Bft) 97,87 %
01.07.2022 22:26 17,8 C 15,6 C 12,8 C 80 % 1021,4 hPa 0,0 l/m 0 min 0 min 0 W/m 0,0 km/h (0 Bft) 97,87 %
01.07.2022 22:28 17,7 C 15,6 C 12,8 C 80 % 1021,4 hPa 0,0 l/m 0 min 0 min 0 W/m 0,0 km/h (0 Bft) 100,00 %
01.07.2022 22:30 17,7 C 15,6 C 12,8 C 80 % 1021,4 hPa 0,0 l/m 0 min 0 min 0 W/m 0,0 km/h (0 Bft) 97,87 %
01.07.2022 22:32 17,6 C 15,6 C 12,8 C 80 % 1021,5 hPa 0,0 l/m 0 min 0 min 0 W/m 0,0 km/h (0 Bft) 95,65 %
01.07.2022 22:34 17,5 C 15,6 C 12,8 C 80 % 1021,4 hPa 0,0 l/m 0 min 0 min 0 W/m 0,0 km/h (0 Bft) 97,87 %
01.07.2022 22:36 17,4 C 15,6 C 12,8 C 80 % 1021,5 hPa 0,0 l/m 0 min 0 min 0 W/m 0,0 km/h (0 Bft) 97,87 %
01.07.2022 22:38 17,4 C 15,6 C 12,8 C 81 % 1021,4 hPa 0,0 l/m 0 min 0 min 0 W/m 0,0 km/h (0 Bft) 97,87 %
01.07.2022 22:40 17,3 C 15,6 C 12,8 C 81 % 1021,5 hPa 0,0 l/m 0 min 0 min 0 W/m 0,0 km/h (0 Bft) 97,87 %
01.07.2022 22:42 17,2 C 15,6 C 12,8 C 81 % 1021,5 hPa 0,0 l/m 0 min 0 min 0 W/m 0,0 km/h (0 Bft) 97,87 %
01.07.2022 22:44 17,2 C 15,6 C 12,8 C 81 % 1021,5 hPa 0,0 l/m 0 min 0 min 0 W/m 0,0 km/h (0 Bft) 97,83 %
01.07.2022 22:46 17,1 C 15,6 C 12,2 C 82 % 1021,6 hPa 0,0 l/m 0 min 0 min 0 W/m 0,0 km/h (0 Bft) 97,87 %
01.07.2022 22:48 17,1 C 15,6 C 12,2 C 82 % 1021,6 hPa 0,0 l/m 0 min 0 min 0 W/m 0,0 km/h (0 Bft) 97,87 %
01.07.2022 22:50 17,1 C 15,6 C 12,2 C 82 % 1021,6 hPa 0,0 l/m 0 min 0 min 0 W/m 0,0 km/h (0 Bft) 97,87 %
01.07.2022 22:52 17,0 C 15,6 C 12,2 C 82 % 1021,7 hPa 0,0 l/m 0 min 0 min 0 W/m 0,0 km/h (0 Bft) 93,62 %
01.07.2022 22:54 16,9 C 15,0 C 12,2 C 83 % 1021,7 hPa 0,0 l/m 0 min 0 min 0 W/m 0,0 km/h (0 Bft) 97,87 %
01.07.2022 22:56 16,9 C 15,0 C 12,2 C 83 % 1021,7 hPa 0,0 l/m 0 min 0 min 0 W/m 0,0 km/h (0 Bft) 97,83 %
01.07.2022 22:58 16,8 C 15,0 C 12,2 C 83 % 1021,7 hPa 0,0 l/m 0 min 0 min 0 W/m 0,0 km/h (0 Bft) 97,87 %
01.07.2022 23:00 16,8 C 15,0 C 12,2 C 83 % 1021,7 hPa 0,0 l/m 0 min 0 min 0 W/m 0,0 km/h (0 Bft) 95,74 %
01.07.2022 23:02 16,8 C 15,0 C 12,2 C 84 % 1021,7 hPa 0,0 l/m 0 min 0 min 0 W/m 0,0 km/h (0 Bft) 97,87 %
01.07.2022 23:04 16,7 C 15,0 C 12,2 C 84 % 1021,7 hPa 0,0 l/m 0 min 0 min 0 W/m 0,0 km/h (0 Bft) 97,87 %
01.07.2022 23:06 16,6 C 15,0 C 12,2 C 84 % 1021,7 hPa 0,0 l/m 0 min 0 min 0 W/m 0,0 km/h (0 Bft) 100,00 %
01.07.2022 23:08 16,6 C 15,0 C 11,7 C 84 % 1021,7 hPa 0,0 l/m 0 min 0 min 0 W/m 0,0 km/h (0 Bft) 100,00 %
01.07.2022 23:10 16,6 C 15,0 C 11,7 C 84 % 1021,8 hPa 0,0 l/m 0 min 0 min 0 W/m 0,0 km/h (0 Bft) 100,00 %
01.07.2022 23:12 16,5 C 15,0 C 11,7 C 84 % 1021,8 hPa 0,0 l/m 0 min 0 min 0 W/m 0,0 km/h (0 Bft) 97,87 %
01.07.2022 23:14 16,4 C 15,0 C 11,7 C 84 % 1021,9 hPa 0,0 l/m 0 min 0 min 0 W/m 0,0 km/h (0 Bft) 100,00 %
01.07.2022 23:16 16,4 C 15,0 C 11,7 C 85 % 1021,9 hPa 0,0 l/m 0 min 0 min 0 W/m 0,0 km/h (0 Bft) 100,00 %
01.07.2022 23:18 16,4 C 14,4 C 11,7 C 85 % 1021,9 hPa 0,0 l/m 0 min 0 min 0 W/m 0,0 km/h (0 Bft) 100,00 %
01.07.2022 23:20 16,3 C 14,4 C 11,7 C 85 % 1021,9 hPa 0,0 l/m 0 min 0 min 0 W/m 0,0 km/h (0 Bft) 97,83 %
01.07.2022 23:22 16,3 C 14,4 C 11,7 C 85 % 1021,9 hPa 0,0 l/m 0 min 0 min 0 W/m 0,0 km/h (0 Bft) 97,87 %
01.07.2022 23:24 16,3 C 14,4 C 11,7 C 85 % 1021,9 hPa 0,0 l/m 0 min 0 min 0 W/m 0,0 km/h (0 Bft) 97,87 %
01.07.2022 23:26 16,2 C 14,4 C 11,7 C 86 % 1021,9 hPa 0,0 l/m 0 min 0 min 0 W/m 0,0 km/h (0 Bft) 97,87 %
01.07.2022 23:28 16,2 C 14,4 C 11,7 C 86 % 1021,9 hPa 0,0 l/m 0 min 0 min 0 W/m 0,0 km/h (0 Bft) 97,87 %
01.07.2022 23:30 16,2 C 15,0 C 11,7 C 85 % 1022,0 hPa 0,0 l/m 0 min 0 min 0 W/m 0,0 km/h (0 Bft) 95,74 %
01.07.2022 23:32 16,1 C 15,0 C 11,7 C 86 % 1022,0 hPa 0,0 l/m 0 min 0 min 0 W/m 0,0 km/h (0 Bft) 97,83 %
01.07.2022 23:34 16,1 C 15,0 C 11,7 C 86 % 1022,0 hPa 0,0 l/m 0 min 0 min 0 W/m 0,0 km/h (0 Bft) 97,87 %
01.07.2022 23:36 16,1 C 15,0 C 11,7 C 86 % 1022,0 hPa 0,0 l/m 0 min 0 min 0 W/m 0,0 km/h (0 Bft) 97,87 %
01.07.2022 23:38 16,1 C 15,0 C 11,7 C 86 % 1022,1 hPa 0,0 l/m 0 min 0 min 0 W/m 0,0 km/h (0 Bft) 97,87 %
01.07.2022 23:40 16,0 C 14,4 C 11,7 C 86 % 1022,1 hPa 0,0 l/m 0 min 0 min 0 W/m 0,0 km/h (0 Bft) 97,87 %
01.07.2022 23:42 16,0 C 14,4 C 11,7 C 86 % 1022,1 hPa 0,0 l/m 0 min 0 min 0 W/m 0,0 km/h (0 Bft) 93,62 %
01.07.2022 23:44 15,9 C 14,4 C 11,7 C 86 % 1022,2 hPa 0,0 l/m 0 min 0 min 0 W/m 0,0 km/h (0 Bft) 97,83 %
01.07.2022 23:46 15,9 C 14,4 C 11,7 C 86 % 1022,2 hPa 0,0 l/m 0 min 0 min 0 W/m 0,0 km/h (0 Bft) 97,87 %
01.07.2022 23:48 15,9 C 14,4 C 11,7 C 86 % 1022,2 hPa 0,0 l/m 0 min 0 min 0 W/m 0,0 km/h (0 Bft) 100,00 %
01.07.2022 23:50 15,8 C 14,4 C 11,1 C 86 % 1022,2 hPa 0,0 l/m 0 min 0 min 0 W/m 0,0 km/h (0 Bft) 97,87 %
01.07.2022 23:52 15,8 C 14,4 C 11,1 C 86 % 1022,2 hPa 0,0 l/m 0 min 0 min 0 W/m 0,0 km/h (0 Bft) 100,00 %
01.07.2022 23:54 15,8 C 14,4 C 11,1 C 86 % 1022,2 hPa 0,0 l/m 0 min 0 min 0 W/m 0,0 km/h (0 Bft) 100,00 %
01.07.2022 23:56 15,8 C 14,4 C 11,1 C 86 % 1022,2 hPa 0,0 l/m 0 min 0 min 0 W/m 0,0 km/h (0 Bft) 100,00 %
01.07.2022 23:58 15,7 C 14,4 C 11,1 C 86 % 1022,2 hPa 0,0 l/m 0 min 0 min 0 W/m 0,0 km/h (0 Bft) 100,00 %
_ Min-Zeit 06:18 02:42 00:00 18:24 01:54 - - - - 21:04 04:58
Minimum _ 13,7 C 13,3 C 10,6 C 51 % 1015,3 hPa - - - - 0,0 km/h (0 Bft) 56,52 %
_ Max-Zeit 18:22 16:42 12:46 00:50 23:44 00:04 12:07 00:00 13:58 14:02 00:14
Maximum _ 23,4 C 28,3 C 25,0 C 96 % 1022,2 hPa 0,2 l/m 3 min 0 min 1167 W/m 38,6 km/h
O-SO (5 Bft)
100,00 %
Durchschnitt _ 17,9 C 18,2 C 14,6 C 78 % 1018,2 hPa #0,2 l/m #7:50 h #0 min. 385 W/m 9,5 km/h (2 Bft) 97,47 %
© 2022 W. Hausmann